<?xml version="1.0" encoding="UTF-8" standalone="no" ?>
<gpx xmlns="http://www.topografix.com/GPX/1/1" xmlns:xsi="http://www.w3.org/2001/XMLSchema-instance" xsi:schemaLocation="http://www.topografix.com/GPX/1/1 http://www.topografix.com/GPX/1/1/gpx.xsd" version="1.1" creator="VisuGPX - https://www.visugpx.com">
  <metadata>
    <name>parc parissot</name>
    <desc><![CDATA[Attention, quelque petit demi-tour]]></desc>
  </metadata>
  <trk>
    <name><![CDATA[PARI-03-20 11:17:09]]></name>
    <trkseg>
      <trkpt lat="49.08472" lon="0.76112">
        <ele>86.66</ele>
        <time>2021-02-28T14:36:58Z</time>
      </trkpt>
      <trkpt lat="49.08471" lon="0.76112">
        <ele>86.66</ele>
        <time>2021-02-28T14:36:59Z</time>
      </trkpt>
      <trkpt lat="49.08469" lon="0.76111">
        <ele>86.66</ele>
        <time>2021-02-28T14:37:36Z</time>
      </trkpt>
      <trkpt lat="49.08469" lon="0.76112">
        <ele>84.25</ele>
        <time>2021-02-28T14:38:03Z</time>
      </trkpt>
      <trkpt lat="49.08479" lon="0.76095">
        <ele>-28.22</ele>
        <time>2021-03-19T16:11:57Z</time>
      </trkpt>
      <trkpt lat="49.08479" lon="0.76104">
        <ele>-27.74</ele>
        <time>2021-03-19T16:12:27Z</time>
      </trkpt>
      <trkpt lat="49.08473" lon="0.76105">
        <ele>-27.74</ele>
        <time>2021-03-19T16:12:37Z</time>
      </trkpt>
      <trkpt lat="49.08473" lon="0.76106">
        <ele>-29.18</ele>
        <time>2021-03-19T16:12:39Z</time>
      </trkpt>
      <trkpt lat="49.08473" lon="0.76108">
        <ele>-24.86</ele>
        <time>2021-03-19T16:12:43Z</time>
      </trkpt>
      <trkpt lat="49.08473" lon="0.76109">
        <ele>-24.86</ele>
        <time>2021-03-19T16:12:44Z</time>
      </trkpt>
      <trkpt lat="49.08473" lon="0.76109">
        <ele>-20.53</ele>
        <time>2021-03-19T16:12:45Z</time>
      </trkpt>
      <trkpt lat="49.08473" lon="0.7611">
        <ele>-16.69</ele>
        <time>2021-03-19T16:12:46Z</time>
      </trkpt>
      <trkpt lat="49.08472" lon="0.7611">
        <ele>-13.32</ele>
        <time>2021-03-19T16:12:47Z</time>
      </trkpt>
      <trkpt lat="49.08472" lon="0.7611">
        <ele>-9.48</ele>
        <time>2021-03-19T16:12:48Z</time>
      </trkpt>
      <trkpt lat="49.08472" lon="0.7611">
        <ele>-6.11</ele>
        <time>2021-03-19T16:12:49Z</time>
      </trkpt>
      <trkpt lat="49.08472" lon="0.7611">
        <ele>-2.75</ele>
        <time>2021-03-19T16:12:50Z</time>
      </trkpt>
      <trkpt lat="49.08472" lon="0.76111">
        <ele>0.62</ele>
        <time>2021-03-19T16:12:51Z</time>
      </trkpt>
      <trkpt lat="49.08472" lon="0.76111">
        <ele>3.5</ele>
        <time>2021-03-19T16:12:52Z</time>
      </trkpt>
      <trkpt lat="49.08472" lon="0.76111">
        <ele>6.87</ele>
        <time>2021-03-19T16:12:53Z</time>
      </trkpt>
      <trkpt lat="49.08471" lon="0.76111">
        <ele>15.04</ele>
        <time>2021-03-19T16:12:55Z</time>
      </trkpt>
      <trkpt lat="49.0847" lon="0.76112">
        <ele>15.04</ele>
        <time>2021-03-19T16:12:56Z</time>
      </trkpt>
      <trkpt lat="49.08469" lon="0.76112">
        <ele>20.32</ele>
        <time>2021-03-19T16:12:58Z</time>
      </trkpt>
      <trkpt lat="49.08468" lon="0.76112">
        <ele>25.13</ele>
        <time>2021-03-19T16:13:00Z</time>
      </trkpt>
      <trkpt lat="49.08468" lon="0.76112">
        <ele>29.46</ele>
        <time>2021-03-19T16:13:02Z</time>
      </trkpt>
      <trkpt lat="49.08468" lon="0.76111">
        <ele>33.78</ele>
        <time>2021-03-19T16:13:04Z</time>
      </trkpt>
      <trkpt lat="49.08468" lon="0.76111">
        <ele>37.63</ele>
        <time>2021-03-19T16:13:06Z</time>
      </trkpt>
      <trkpt lat="49.08468" lon="0.76111">
        <ele>41.47</ele>
        <time>2021-03-19T16:13:07Z</time>
      </trkpt>
      <trkpt lat="49.08468" lon="0.76112">
        <ele>41.47</ele>
        <time>2021-03-19T16:13:08Z</time>
      </trkpt>
      <trkpt lat="49.08469" lon="0.76112">
        <ele>44.84</ele>
        <time>2021-03-19T16:13:09Z</time>
      </trkpt>
      <trkpt lat="49.08469" lon="0.76112">
        <ele>44.84</ele>
        <time>2021-03-19T16:13:10Z</time>
      </trkpt>
      <trkpt lat="49.08469" lon="0.76113">
        <ele>49.65</ele>
        <time>2021-03-19T16:13:12Z</time>
      </trkpt>
      <trkpt lat="49.08469" lon="0.76112">
        <ele>53.97</ele>
        <time>2021-03-19T16:13:15Z</time>
      </trkpt>
      <trkpt lat="49.08469" lon="0.76112">
        <ele>57.82</ele>
        <time>2021-03-19T16:13:18Z</time>
      </trkpt>
      <trkpt lat="49.0847" lon="0.76112">
        <ele>58.78</ele>
        <time>2021-03-19T16:13:20Z</time>
      </trkpt>
      <trkpt lat="49.0847" lon="0.76113">
        <ele>62.14</ele>
        <time>2021-03-19T16:13:23Z</time>
      </trkpt>
      <trkpt lat="49.08469" lon="0.76113">
        <ele>65.99</ele>
        <time>2021-03-19T16:13:26Z</time>
      </trkpt>
      <trkpt lat="49.08469" lon="0.76113">
        <ele>65.99</ele>
        <time>2021-03-19T16:13:27Z</time>
      </trkpt>
      <trkpt lat="49.08467" lon="0.76113">
        <ele>69.83</ele>
        <time>2021-03-19T16:13:31Z</time>
      </trkpt>
      <trkpt lat="49.08467" lon="0.76112">
        <ele>72.72</ele>
        <time>2021-03-19T16:13:34Z</time>
      </trkpt>
      <trkpt lat="49.08467" lon="0.76111">
        <ele>75.12</ele>
        <time>2021-03-19T16:13:38Z</time>
      </trkpt>
      <trkpt lat="49.08468" lon="0.76108">
        <ele>78</ele>
        <time>2021-03-19T16:13:43Z</time>
      </trkpt>
      <trkpt lat="49.08471" lon="0.76108">
        <ele>81.37</ele>
        <time>2021-03-19T16:13:48Z</time>
      </trkpt>
      <trkpt lat="49.08472" lon="0.76108">
        <ele>81.37</ele>
        <time>2021-03-19T16:13:49Z</time>
      </trkpt>
      <trkpt lat="49.08472" lon="0.76108">
        <ele>85.69</ele>
        <time>2021-03-19T16:13:55Z</time>
      </trkpt>
      <trkpt lat="49.08472" lon="0.76108">
        <ele>84.73</ele>
        <time>2021-03-19T16:13:56Z</time>
      </trkpt>
      <trkpt lat="49.08472" lon="0.76108">
        <ele>81.37</ele>
        <time>2021-03-19T16:13:58Z</time>
      </trkpt>
      <trkpt lat="49.09329" lon="0.76917">
        <ele>45.32</ele>
        <time>2021-03-20T08:11:43Z</time>
      </trkpt>
      <trkpt lat="49.09331" lon="0.76916">
        <ele>52.05</ele>
        <time>2021-03-20T08:11:45Z</time>
      </trkpt>
      <trkpt lat="49.09332" lon="0.76915">
        <ele>54.93</ele>
        <time>2021-03-20T08:11:46Z</time>
      </trkpt>
      <trkpt lat="49.09332" lon="0.76914">
        <ele>61.66</ele>
        <time>2021-03-20T08:11:48Z</time>
      </trkpt>
      <trkpt lat="49.09332" lon="0.7691">
        <ele>61.66</ele>
        <time>2021-03-20T08:11:49Z</time>
      </trkpt>
      <trkpt lat="49.09332" lon="0.76908">
        <ele>66.95</ele>
        <time>2021-03-20T08:11:51Z</time>
      </trkpt>
      <trkpt lat="49.09331" lon="0.76907">
        <ele>70.79</ele>
        <time>2021-03-20T08:11:53Z</time>
      </trkpt>
      <trkpt lat="49.09331" lon="0.76907">
        <ele>74.16</ele>
        <time>2021-03-20T08:11:54Z</time>
      </trkpt>
      <trkpt lat="49.09332" lon="0.76907">
        <ele>78</ele>
        <time>2021-03-20T08:11:56Z</time>
      </trkpt>
      <trkpt lat="49.09331" lon="0.76907">
        <ele>80.41</ele>
        <time>2021-03-20T08:11:58Z</time>
      </trkpt>
      <trkpt lat="49.09331" lon="0.76907">
        <ele>85.21</ele>
        <time>2021-03-20T08:12:00Z</time>
      </trkpt>
      <trkpt lat="49.0933" lon="0.76906">
        <ele>88.1</ele>
        <time>2021-03-20T08:12:02Z</time>
      </trkpt>
      <trkpt lat="49.09331" lon="0.76905">
        <ele>91.94</ele>
        <time>2021-03-20T08:12:04Z</time>
      </trkpt>
      <trkpt lat="49.09332" lon="0.76904">
        <ele>94.83</ele>
        <time>2021-03-20T08:12:06Z</time>
      </trkpt>
      <trkpt lat="49.09327" lon="0.76901">
        <ele>101.56</ele>
        <time>2021-03-20T08:12:10Z</time>
      </trkpt>
      <trkpt lat="49.09321" lon="0.76896">
        <ele>103.96</ele>
        <time>2021-03-20T08:12:13Z</time>
      </trkpt>
      <trkpt lat="49.09316" lon="0.76891">
        <ele>107.81</ele>
        <time>2021-03-20T08:12:16Z</time>
      </trkpt>
      <trkpt lat="49.0931" lon="0.76886">
        <ele>111.17</ele>
        <time>2021-03-20T08:12:19Z</time>
      </trkpt>
      <trkpt lat="49.09308" lon="0.76884">
        <ele>115.01</ele>
        <time>2021-03-20T08:12:23Z</time>
      </trkpt>
      <trkpt lat="49.09307" lon="0.76882">
        <ele>118.38</ele>
        <time>2021-03-20T08:12:27Z</time>
      </trkpt>
      <trkpt lat="49.09306" lon="0.7688">
        <ele>119.34</ele>
        <time>2021-03-20T08:12:28Z</time>
      </trkpt>
      <trkpt lat="49.09306" lon="0.76878">
        <ele>119.82</ele>
        <time>2021-03-20T08:12:29Z</time>
      </trkpt>
      <trkpt lat="49.09305" lon="0.76875">
        <ele>120.78</ele>
        <time>2021-03-20T08:12:30Z</time>
      </trkpt>
      <trkpt lat="49.09304" lon="0.76873">
        <ele>121.26</ele>
        <time>2021-03-20T08:12:31Z</time>
      </trkpt>
      <trkpt lat="49.09303" lon="0.76871">
        <ele>122.22</ele>
        <time>2021-03-20T08:12:32Z</time>
      </trkpt>
      <trkpt lat="49.09302" lon="0.76868">
        <ele>122.71</ele>
        <time>2021-03-20T08:12:33Z</time>
      </trkpt>
      <trkpt lat="49.093" lon="0.76865">
        <ele>124.15</ele>
        <time>2021-03-20T08:12:34Z</time>
      </trkpt>
      <trkpt lat="49.09292" lon="0.76848">
        <ele>127.03</ele>
        <time>2021-03-20T08:12:39Z</time>
      </trkpt>
      <trkpt lat="49.09277" lon="0.76819">
        <ele>130.4</ele>
        <time>2021-03-20T08:12:46Z</time>
      </trkpt>
      <trkpt lat="49.09259" lon="0.76789">
        <ele>133.28</ele>
        <time>2021-03-20T08:12:53Z</time>
      </trkpt>
      <trkpt lat="49.09249" lon="0.76776">
        <ele>134.24</ele>
        <time>2021-03-20T08:12:56Z</time>
      </trkpt>
      <trkpt lat="49.09243" lon="0.76766">
        <ele>134.72</ele>
        <time>2021-03-20T08:12:58Z</time>
      </trkpt>
      <trkpt lat="49.09213" lon="0.76726">
        <ele>138.09</ele>
        <time>2021-03-20T08:13:07Z</time>
      </trkpt>
      <trkpt lat="49.09205" lon="0.76716">
        <ele>138.09</ele>
        <time>2021-03-20T08:13:09Z</time>
      </trkpt>
      <trkpt lat="49.09187" lon="0.76698">
        <ele>139.53</ele>
        <time>2021-03-20T08:13:14Z</time>
      </trkpt>
      <trkpt lat="49.0913" lon="0.76643">
        <ele>141.45</ele>
        <time>2021-03-20T08:13:28Z</time>
      </trkpt>
      <trkpt lat="49.09128" lon="0.76636">
        <ele>140.97</ele>
        <time>2021-03-20T08:13:29Z</time>
      </trkpt>
      <trkpt lat="49.09127" lon="0.76628">
        <ele>140.97</ele>
        <time>2021-03-20T08:13:30Z</time>
      </trkpt>
      <trkpt lat="49.09127" lon="0.7662">
        <ele>141.45</ele>
        <time>2021-03-20T08:13:31Z</time>
      </trkpt>
      <trkpt lat="49.09128" lon="0.76613">
        <ele>141.93</ele>
        <time>2021-03-20T08:13:32Z</time>
      </trkpt>
      <trkpt lat="49.09141" lon="0.7654">
        <ele>144.34</ele>
        <time>2021-03-20T08:13:44Z</time>
      </trkpt>
      <trkpt lat="49.09149" lon="0.76502">
        <ele>145.3</ele>
        <time>2021-03-20T08:13:52Z</time>
      </trkpt>
      <trkpt lat="49.09147" lon="0.76501">
        <ele>145.3</ele>
        <time>2021-03-20T08:13:54Z</time>
      </trkpt>
      <trkpt lat="49.09139" lon="0.76528">
        <ele>145.3</ele>
        <time>2021-03-20T08:14:05Z</time>
      </trkpt>
      <trkpt lat="49.09127" lon="0.7658">
        <ele>145.3</ele>
        <time>2021-03-20T08:14:17Z</time>
      </trkpt>
      <trkpt lat="49.09123" lon="0.76595">
        <ele>144.34</ele>
        <time>2021-03-20T08:14:20Z</time>
      </trkpt>
      <trkpt lat="49.09117" lon="0.76621">
        <ele>144.34</ele>
        <time>2021-03-20T08:14:26Z</time>
      </trkpt>
      <trkpt lat="49.09115" lon="0.76624">
        <ele>144.34</ele>
        <time>2021-03-20T08:14:27Z</time>
      </trkpt>
      <trkpt lat="49.09112" lon="0.76625">
        <ele>144.34</ele>
        <time>2021-03-20T08:14:28Z</time>
      </trkpt>
      <trkpt lat="49.0911" lon="0.76625">
        <ele>143.85</ele>
        <time>2021-03-20T08:14:29Z</time>
      </trkpt>
      <trkpt lat="49.09108" lon="0.76626">
        <ele>143.37</ele>
        <time>2021-03-20T08:14:30Z</time>
      </trkpt>
      <trkpt lat="49.09106" lon="0.76626">
        <ele>143.37</ele>
        <time>2021-03-20T08:14:31Z</time>
      </trkpt>
      <trkpt lat="49.09106" lon="0.76633">
        <ele>142.89</ele>
        <time>2021-03-20T08:14:50Z</time>
      </trkpt>
      <trkpt lat="49.09086" lon="0.76618">
        <ele>139.53</ele>
        <time>2021-03-20T08:14:58Z</time>
      </trkpt>
      <trkpt lat="49.09076" lon="0.76609">
        <ele>136.16</ele>
        <time>2021-03-20T08:15:02Z</time>
      </trkpt>
      <trkpt lat="49.09066" lon="0.76602">
        <ele>133.28</ele>
        <time>2021-03-20T08:15:06Z</time>
      </trkpt>
      <trkpt lat="49.09062" lon="0.76598">
        <ele>131.36</ele>
        <time>2021-03-20T08:15:08Z</time>
      </trkpt>
      <trkpt lat="49.09057" lon="0.76589">
        <ele>129.43</ele>
        <time>2021-03-20T08:15:11Z</time>
      </trkpt>
      <trkpt lat="49.09052" lon="0.76574">
        <ele>127.99</ele>
        <time>2021-03-20T08:15:25Z</time>
      </trkpt>
      <trkpt lat="49.09063" lon="0.76528">
        <ele>126.07</ele>
        <time>2021-03-20T08:15:35Z</time>
      </trkpt>
      <trkpt lat="49.09068" lon="0.76509">
        <ele>125.59</ele>
        <time>2021-03-20T08:15:38Z</time>
      </trkpt>
      <trkpt lat="49.0907" lon="0.76503">
        <ele>125.59</ele>
        <time>2021-03-20T08:15:39Z</time>
      </trkpt>
      <trkpt lat="49.09073" lon="0.76489">
        <ele>124.63</ele>
        <time>2021-03-20T08:15:41Z</time>
      </trkpt>
      <trkpt lat="49.09098" lon="0.76405">
        <ele>122.22</ele>
        <time>2021-03-20T08:15:53Z</time>
      </trkpt>
      <trkpt lat="49.09138" lon="0.76293">
        <ele>119.82</ele>
        <time>2021-03-20T08:16:09Z</time>
      </trkpt>
      <trkpt lat="49.0917" lon="0.76216">
        <ele>118.38</ele>
        <time>2021-03-20T08:16:21Z</time>
      </trkpt>
      <trkpt lat="49.09209" lon="0.76147">
        <ele>118.38</ele>
        <time>2021-03-20T08:16:34Z</time>
      </trkpt>
      <trkpt lat="49.09244" lon="0.76104">
        <ele>117.9</ele>
        <time>2021-03-20T08:16:45Z</time>
      </trkpt>
      <trkpt lat="49.09278" lon="0.76073">
        <ele>119.34</ele>
        <time>2021-03-20T08:16:58Z</time>
      </trkpt>
      <trkpt lat="49.09295" lon="0.76063">
        <ele>121.74</ele>
        <time>2021-03-20T08:17:07Z</time>
      </trkpt>
      <trkpt lat="49.09296" lon="0.76063">
        <ele>122.22</ele>
        <time>2021-03-20T08:17:08Z</time>
      </trkpt>
      <trkpt lat="49.09318" lon="0.76065">
        <ele>125.59</ele>
        <time>2021-03-20T08:17:20Z</time>
      </trkpt>
      <trkpt lat="49.09341" lon="0.76079">
        <ele>127.51</ele>
        <time>2021-03-20T08:17:34Z</time>
      </trkpt>
      <trkpt lat="49.09375" lon="0.76116">
        <ele>128.47</ele>
        <time>2021-03-20T08:17:50Z</time>
      </trkpt>
      <trkpt lat="49.094" lon="0.76153">
        <ele>129.43</ele>
        <time>2021-03-20T08:18:04Z</time>
      </trkpt>
      <trkpt lat="49.09418" lon="0.76181">
        <ele>131.36</ele>
        <time>2021-03-20T08:18:18Z</time>
      </trkpt>
      <trkpt lat="49.09433" lon="0.76202">
        <ele>133.28</ele>
        <time>2021-03-20T08:18:30Z</time>
      </trkpt>
      <trkpt lat="49.09434" lon="0.76204">
        <ele>133.28</ele>
        <time>2021-03-20T08:18:31Z</time>
      </trkpt>
      <trkpt lat="49.09436" lon="0.76206">
        <ele>133.76</ele>
        <time>2021-03-20T08:18:32Z</time>
      </trkpt>
      <trkpt lat="49.09437" lon="0.76207">
        <ele>133.76</ele>
        <time>2021-03-20T08:18:33Z</time>
      </trkpt>
      <trkpt lat="49.09438" lon="0.76209">
        <ele>133.76</ele>
        <time>2021-03-20T08:18:34Z</time>
      </trkpt>
      <trkpt lat="49.09447" lon="0.76216">
        <ele>134.24</ele>
        <time>2021-03-20T08:18:39Z</time>
      </trkpt>
      <trkpt lat="49.09456" lon="0.76225">
        <ele>137.13</ele>
        <time>2021-03-20T08:18:47Z</time>
      </trkpt>
      <trkpt lat="49.09476" lon="0.7624">
        <ele>138.57</ele>
        <time>2021-03-20T08:19:03Z</time>
      </trkpt>
      <trkpt lat="49.09503" lon="0.76256">
        <ele>140.49</ele>
        <time>2021-03-20T08:19:19Z</time>
      </trkpt>
      <trkpt lat="49.09525" lon="0.76272">
        <ele>142.41</ele>
        <time>2021-03-20T08:19:33Z</time>
      </trkpt>
      <trkpt lat="49.0955" lon="0.76295">
        <ele>145.3</ele>
        <time>2021-03-20T08:19:47Z</time>
      </trkpt>
      <trkpt lat="49.09574" lon="0.7632">
        <ele>146.26</ele>
        <time>2021-03-20T08:20:01Z</time>
      </trkpt>
      <trkpt lat="49.09593" lon="0.76349">
        <ele>148.18</ele>
        <time>2021-03-20T08:20:15Z</time>
      </trkpt>
      <trkpt lat="49.09599" lon="0.76357">
        <ele>149.14</ele>
        <time>2021-03-20T08:20:20Z</time>
      </trkpt>
      <trkpt lat="49.0962" lon="0.76379">
        <ele>150.1</ele>
        <time>2021-03-20T08:20:35Z</time>
      </trkpt>
      <trkpt lat="49.09637" lon="0.76406">
        <ele>151.54</ele>
        <time>2021-03-20T08:20:50Z</time>
      </trkpt>
      <trkpt lat="49.09666" lon="0.76441">
        <ele>151.54</ele>
        <time>2021-03-20T08:21:03Z</time>
      </trkpt>
      <trkpt lat="49.09692" lon="0.76475">
        <ele>152.99</ele>
        <time>2021-03-20T08:21:13Z</time>
      </trkpt>
      <trkpt lat="49.09701" lon="0.76485">
        <ele>152.99</ele>
        <time>2021-03-20T08:21:18Z</time>
      </trkpt>
      <trkpt lat="49.09704" lon="0.76486">
        <ele>152.99</ele>
        <time>2021-03-20T08:21:19Z</time>
      </trkpt>
      <trkpt lat="49.09707" lon="0.76486">
        <ele>152.99</ele>
        <time>2021-03-20T08:21:20Z</time>
      </trkpt>
      <trkpt lat="49.09748" lon="0.76474">
        <ele>152.99</ele>
        <time>2021-03-20T08:21:35Z</time>
      </trkpt>
      <trkpt lat="49.09789" lon="0.76459">
        <ele>153.47</ele>
        <time>2021-03-20T08:21:47Z</time>
      </trkpt>
      <trkpt lat="49.09837" lon="0.7644">
        <ele>153.95</ele>
        <time>2021-03-20T08:22:00Z</time>
      </trkpt>
      <trkpt lat="49.09863" lon="0.76427">
        <ele>154.43</ele>
        <time>2021-03-20T08:22:12Z</time>
      </trkpt>
      <trkpt lat="49.09879" lon="0.76423">
        <ele>154.91</ele>
        <time>2021-03-20T08:22:28Z</time>
      </trkpt>
      <trkpt lat="49.09912" lon="0.76399">
        <ele>154.91</ele>
        <time>2021-03-20T08:22:39Z</time>
      </trkpt>
      <trkpt lat="49.09963" lon="0.7634">
        <ele>154.91</ele>
        <time>2021-03-20T08:22:55Z</time>
      </trkpt>
      <trkpt lat="49.09986" lon="0.76321">
        <ele>154.91</ele>
        <time>2021-03-20T08:23:02Z</time>
      </trkpt>
      <trkpt lat="49.10016" lon="0.76296">
        <ele>154.91</ele>
        <time>2021-03-20T08:23:10Z</time>
      </trkpt>
      <trkpt lat="49.10019" lon="0.76293">
        <ele>154.91</ele>
        <time>2021-03-20T08:23:11Z</time>
      </trkpt>
      <trkpt lat="49.10055" lon="0.76259">
        <ele>154.91</ele>
        <time>2021-03-20T08:23:20Z</time>
      </trkpt>
      <trkpt lat="49.1006" lon="0.76256">
        <ele>154.91</ele>
        <time>2021-03-20T08:23:21Z</time>
      </trkpt>
      <trkpt lat="49.10111" lon="0.7621">
        <ele>154.91</ele>
        <time>2021-03-20T08:23:34Z</time>
      </trkpt>
      <trkpt lat="49.10144" lon="0.76186">
        <ele>155.39</ele>
        <time>2021-03-20T08:23:42Z</time>
      </trkpt>
      <trkpt lat="49.10181" lon="0.76166">
        <ele>154.43</ele>
        <time>2021-03-20T08:23:50Z</time>
      </trkpt>
      <trkpt lat="49.10194" lon="0.76157">
        <ele>154.43</ele>
        <time>2021-03-20T08:23:53Z</time>
      </trkpt>
      <trkpt lat="49.10284" lon="0.76075">
        <ele>152.99</ele>
        <time>2021-03-20T08:24:12Z</time>
      </trkpt>
      <trkpt lat="49.10357" lon="0.76006">
        <ele>152.03</ele>
        <time>2021-03-20T08:24:27Z</time>
      </trkpt>
      <trkpt lat="49.1042" lon="0.75948">
        <ele>152.03</ele>
        <time>2021-03-20T08:24:44Z</time>
      </trkpt>
      <trkpt lat="49.10479" lon="0.75896">
        <ele>152.99</ele>
        <time>2021-03-20T08:25:00Z</time>
      </trkpt>
      <trkpt lat="49.10546" lon="0.75823">
        <ele>152.99</ele>
        <time>2021-03-20T08:25:19Z</time>
      </trkpt>
      <trkpt lat="49.10616" lon="0.75747">
        <ele>149.62</ele>
        <time>2021-03-20T08:25:36Z</time>
      </trkpt>
      <trkpt lat="49.10675" lon="0.75686">
        <ele>149.14</ele>
        <time>2021-03-20T08:25:51Z</time>
      </trkpt>
      <trkpt lat="49.10714" lon="0.75654">
        <ele>150.58</ele>
        <time>2021-03-20T08:26:04Z</time>
      </trkpt>
      <trkpt lat="49.10751" lon="0.75625">
        <ele>150.58</ele>
        <time>2021-03-20T08:26:18Z</time>
      </trkpt>
      <trkpt lat="49.10784" lon="0.75604">
        <ele>150.58</ele>
        <time>2021-03-20T08:26:30Z</time>
      </trkpt>
      <trkpt lat="49.10825" lon="0.75572">
        <ele>149.14</ele>
        <time>2021-03-20T08:26:41Z</time>
      </trkpt>
      <trkpt lat="49.10879" lon="0.75535">
        <ele>148.18</ele>
        <time>2021-03-20T08:26:54Z</time>
      </trkpt>
      <trkpt lat="49.10939" lon="0.75494">
        <ele>146.74</ele>
        <time>2021-03-20T08:27:06Z</time>
      </trkpt>
      <trkpt lat="49.10977" lon="0.75464">
        <ele>145.3</ele>
        <time>2021-03-20T08:27:15Z</time>
      </trkpt>
      <trkpt lat="49.10981" lon="0.75463">
        <ele>145.3</ele>
        <time>2021-03-20T08:27:16Z</time>
      </trkpt>
      <trkpt lat="49.10989" lon="0.75459">
        <ele>145.3</ele>
        <time>2021-03-20T08:27:18Z</time>
      </trkpt>
      <trkpt lat="49.10993" lon="0.75456">
        <ele>145.3</ele>
        <time>2021-03-20T08:27:19Z</time>
      </trkpt>
      <trkpt lat="49.11002" lon="0.75451">
        <ele>145.3</ele>
        <time>2021-03-20T08:27:21Z</time>
      </trkpt>
      <trkpt lat="49.11038" lon="0.75434">
        <ele>146.74</ele>
        <time>2021-03-20T08:27:31Z</time>
      </trkpt>
      <trkpt lat="49.11102" lon="0.75405">
        <ele>149.14</ele>
        <time>2021-03-20T08:27:49Z</time>
      </trkpt>
      <trkpt lat="49.11175" lon="0.75379">
        <ele>150.1</ele>
        <time>2021-03-20T08:28:08Z</time>
      </trkpt>
      <trkpt lat="49.11188" lon="0.75375">
        <ele>150.1</ele>
        <time>2021-03-20T08:28:11Z</time>
      </trkpt>
      <trkpt lat="49.11226" lon="0.75366">
        <ele>150.1</ele>
        <time>2021-03-20T08:28:21Z</time>
      </trkpt>
      <trkpt lat="49.11231" lon="0.75366">
        <ele>150.1</ele>
        <time>2021-03-20T08:28:22Z</time>
      </trkpt>
      <trkpt lat="49.1125" lon="0.75366">
        <ele>149.62</ele>
        <time>2021-03-20T08:28:26Z</time>
      </trkpt>
      <trkpt lat="49.11269" lon="0.75368">
        <ele>148.66</ele>
        <time>2021-03-20T08:28:30Z</time>
      </trkpt>
      <trkpt lat="49.11278" lon="0.75368">
        <ele>148.66</ele>
        <time>2021-03-20T08:28:32Z</time>
      </trkpt>
      <trkpt lat="49.11283" lon="0.75368">
        <ele>148.66</ele>
        <time>2021-03-20T08:28:33Z</time>
      </trkpt>
      <trkpt lat="49.11359" lon="0.75379">
        <ele>145.78</ele>
        <time>2021-03-20T08:28:47Z</time>
      </trkpt>
      <trkpt lat="49.11395" lon="0.75384">
        <ele>144.34</ele>
        <time>2021-03-20T08:28:54Z</time>
      </trkpt>
      <trkpt lat="49.11414" lon="0.75389">
        <ele>143.85</ele>
        <time>2021-03-20T08:28:58Z</time>
      </trkpt>
      <trkpt lat="49.11418" lon="0.7539">
        <ele>143.85</ele>
        <time>2021-03-20T08:28:59Z</time>
      </trkpt>
      <trkpt lat="49.11422" lon="0.75391">
        <ele>143.85</ele>
        <time>2021-03-20T08:29:00Z</time>
      </trkpt>
      <trkpt lat="49.11426" lon="0.75391">
        <ele>143.85</ele>
        <time>2021-03-20T08:29:01Z</time>
      </trkpt>
      <trkpt lat="49.1143" lon="0.75391">
        <ele>143.85</ele>
        <time>2021-03-20T08:29:02Z</time>
      </trkpt>
      <trkpt lat="49.11434" lon="0.75391">
        <ele>143.85</ele>
        <time>2021-03-20T08:29:03Z</time>
      </trkpt>
      <trkpt lat="49.11437" lon="0.75391">
        <ele>143.85</ele>
        <time>2021-03-20T08:29:04Z</time>
      </trkpt>
      <trkpt lat="49.11468" lon="0.75394">
        <ele>143.37</ele>
        <time>2021-03-20T08:29:11Z</time>
      </trkpt>
      <trkpt lat="49.11472" lon="0.75394">
        <ele>143.37</ele>
        <time>2021-03-20T08:29:12Z</time>
      </trkpt>
      <trkpt lat="49.11517" lon="0.75385">
        <ele>143.85</ele>
        <time>2021-03-20T08:29:25Z</time>
      </trkpt>
      <trkpt lat="49.11558" lon="0.75373">
        <ele>145.78</ele>
        <time>2021-03-20T08:29:39Z</time>
      </trkpt>
      <trkpt lat="49.11603" lon="0.7536">
        <ele>146.74</ele>
        <time>2021-03-20T08:29:53Z</time>
      </trkpt>
      <trkpt lat="49.11635" lon="0.75345">
        <ele>146.74</ele>
        <time>2021-03-20T08:30:03Z</time>
      </trkpt>
      <trkpt lat="49.11682" lon="0.75325">
        <ele>147.22</ele>
        <time>2021-03-20T08:30:17Z</time>
      </trkpt>
      <trkpt lat="49.11729" lon="0.75304">
        <ele>147.22</ele>
        <time>2021-03-20T08:30:30Z</time>
      </trkpt>
      <trkpt lat="49.11765" lon="0.75288">
        <ele>147.22</ele>
        <time>2021-03-20T08:30:43Z</time>
      </trkpt>
      <trkpt lat="49.11785" lon="0.75277">
        <ele>147.22</ele>
        <time>2021-03-20T08:30:48Z</time>
      </trkpt>
      <trkpt lat="49.11842" lon="0.75247">
        <ele>147.22</ele>
        <time>2021-03-20T08:31:00Z</time>
      </trkpt>
      <trkpt lat="49.11904" lon="0.75216">
        <ele>146.26</ele>
        <time>2021-03-20T08:31:13Z</time>
      </trkpt>
      <trkpt lat="49.11908" lon="0.75214">
        <ele>146.26</ele>
        <time>2021-03-20T08:31:14Z</time>
      </trkpt>
      <trkpt lat="49.11921" lon="0.75207">
        <ele>146.26</ele>
        <time>2021-03-20T08:31:18Z</time>
      </trkpt>
      <trkpt lat="49.11916" lon="0.75206">
        <ele>146.26</ele>
        <time>2021-03-20T08:31:21Z</time>
      </trkpt>
      <trkpt lat="49.11878" lon="0.75225">
        <ele>146.26</ele>
        <time>2021-03-20T08:31:33Z</time>
      </trkpt>
      <trkpt lat="49.1183" lon="0.75247">
        <ele>146.26</ele>
        <time>2021-03-20T08:31:45Z</time>
      </trkpt>
      <trkpt lat="49.11769" lon="0.75279">
        <ele>146.26</ele>
        <time>2021-03-20T08:31:59Z</time>
      </trkpt>
      <trkpt lat="49.11741" lon="0.7532">
        <ele>148.18</ele>
        <time>2021-03-20T08:32:10Z</time>
      </trkpt>
      <trkpt lat="49.11737" lon="0.75329">
        <ele>148.18</ele>
        <time>2021-03-20T08:32:13Z</time>
      </trkpt>
      <trkpt lat="49.11738" lon="0.7533">
        <ele>148.18</ele>
        <time>2021-03-20T08:32:14Z</time>
      </trkpt>
      <trkpt lat="49.1174" lon="0.75326">
        <ele>148.18</ele>
        <time>2021-03-20T08:32:16Z</time>
      </trkpt>
      <trkpt lat="49.11742" lon="0.75323">
        <ele>148.18</ele>
        <time>2021-03-20T08:32:17Z</time>
      </trkpt>
      <trkpt lat="49.11743" lon="0.75321">
        <ele>148.18</ele>
        <time>2021-03-20T08:32:18Z</time>
      </trkpt>
      <trkpt lat="49.11751" lon="0.75271">
        <ele>147.7</ele>
        <time>2021-03-20T08:32:29Z</time>
      </trkpt>
      <trkpt lat="49.11751" lon="0.75262">
        <ele>146.74</ele>
        <time>2021-03-20T08:32:31Z</time>
      </trkpt>
      <trkpt lat="49.11768" lon="0.75187">
        <ele>144.34</ele>
        <time>2021-03-20T08:32:44Z</time>
      </trkpt>
      <trkpt lat="49.11779" lon="0.75144">
        <ele>143.37</ele>
        <time>2021-03-20T08:32:51Z</time>
      </trkpt>
      <trkpt lat="49.1178" lon="0.75137">
        <ele>142.89</ele>
        <time>2021-03-20T08:32:52Z</time>
      </trkpt>
      <trkpt lat="49.11789" lon="0.75082">
        <ele>139.53</ele>
        <time>2021-03-20T08:33:02Z</time>
      </trkpt>
      <trkpt lat="49.11791" lon="0.75071">
        <ele>138.57</ele>
        <time>2021-03-20T08:33:04Z</time>
      </trkpt>
      <trkpt lat="49.11792" lon="0.75057">
        <ele>137.13</ele>
        <time>2021-03-20T08:33:07Z</time>
      </trkpt>
      <trkpt lat="49.11792" lon="0.75039">
        <ele>135.2</ele>
        <time>2021-03-20T08:33:11Z</time>
      </trkpt>
      <trkpt lat="49.11793" lon="0.75017">
        <ele>131.84</ele>
        <time>2021-03-20T08:33:16Z</time>
      </trkpt>
      <trkpt lat="49.11795" lon="0.7499">
        <ele>128.47</ele>
        <time>2021-03-20T08:33:22Z</time>
      </trkpt>
      <trkpt lat="49.11799" lon="0.74968">
        <ele>125.59</ele>
        <time>2021-03-20T08:33:27Z</time>
      </trkpt>
      <trkpt lat="49.11801" lon="0.74941">
        <ele>121.74</ele>
        <time>2021-03-20T08:33:33Z</time>
      </trkpt>
      <trkpt lat="49.11798" lon="0.74915">
        <ele>118.86</ele>
        <time>2021-03-20T08:33:38Z</time>
      </trkpt>
      <trkpt lat="49.11795" lon="0.74889">
        <ele>116.94</ele>
        <time>2021-03-20T08:33:48Z</time>
      </trkpt>
      <trkpt lat="49.11788" lon="0.74853">
        <ele>114.53</ele>
        <time>2021-03-20T08:34:02Z</time>
      </trkpt>
      <trkpt lat="49.11761" lon="0.74783">
        <ele>111.17</ele>
        <time>2021-03-20T08:34:11Z</time>
      </trkpt>
      <trkpt lat="49.11753" lon="0.74765">
        <ele>110.21</ele>
        <time>2021-03-20T08:34:13Z</time>
      </trkpt>
      <trkpt lat="49.11721" lon="0.74683">
        <ele>106.84</ele>
        <time>2021-03-20T08:34:21Z</time>
      </trkpt>
      <trkpt lat="49.11719" lon="0.74674">
        <ele>106.36</ele>
        <time>2021-03-20T08:34:22Z</time>
      </trkpt>
      <trkpt lat="49.11717" lon="0.74662">
        <ele>106.36</ele>
        <time>2021-03-20T08:34:23Z</time>
      </trkpt>
      <trkpt lat="49.11715" lon="0.7465">
        <ele>105.88</ele>
        <time>2021-03-20T08:34:24Z</time>
      </trkpt>
      <trkpt lat="49.11713" lon="0.74638">
        <ele>105.88</ele>
        <time>2021-03-20T08:34:25Z</time>
      </trkpt>
      <trkpt lat="49.11712" lon="0.74627">
        <ele>105.4</ele>
        <time>2021-03-20T08:34:26Z</time>
      </trkpt>
      <trkpt lat="49.11713" lon="0.74614">
        <ele>105.4</ele>
        <time>2021-03-20T08:34:27Z</time>
      </trkpt>
      <trkpt lat="49.11714" lon="0.74603">
        <ele>105.4</ele>
        <time>2021-03-20T08:34:28Z</time>
      </trkpt>
      <trkpt lat="49.11717" lon="0.74593">
        <ele>104.44</ele>
        <time>2021-03-20T08:34:29Z</time>
      </trkpt>
      <trkpt lat="49.1172" lon="0.74583">
        <ele>104.44</ele>
        <time>2021-03-20T08:34:30Z</time>
      </trkpt>
      <trkpt lat="49.11723" lon="0.74572">
        <ele>103.96</ele>
        <time>2021-03-20T08:34:31Z</time>
      </trkpt>
      <trkpt lat="49.11756" lon="0.7448">
        <ele>100.6</ele>
        <time>2021-03-20T08:34:40Z</time>
      </trkpt>
      <trkpt lat="49.11786" lon="0.74395">
        <ele>97.23</ele>
        <time>2021-03-20T08:34:48Z</time>
      </trkpt>
      <trkpt lat="49.11807" lon="0.74292">
        <ele>94.35</ele>
        <time>2021-03-20T08:34:57Z</time>
      </trkpt>
      <trkpt lat="49.11812" lon="0.74188">
        <ele>90.5</ele>
        <time>2021-03-20T08:35:06Z</time>
      </trkpt>
      <trkpt lat="49.11817" lon="0.74111">
        <ele>88.1</ele>
        <time>2021-03-20T08:35:13Z</time>
      </trkpt>
      <trkpt lat="49.11819" lon="0.741">
        <ele>88.1</ele>
        <time>2021-03-20T08:35:14Z</time>
      </trkpt>
      <trkpt lat="49.11827" lon="0.74013">
        <ele>85.21</ele>
        <time>2021-03-20T08:35:22Z</time>
      </trkpt>
      <trkpt lat="49.11827" lon="0.74002">
        <ele>84.73</ele>
        <time>2021-03-20T08:35:23Z</time>
      </trkpt>
      <trkpt lat="49.11826" lon="0.73989">
        <ele>84.25</ele>
        <time>2021-03-20T08:35:24Z</time>
      </trkpt>
      <trkpt lat="49.11825" lon="0.73979">
        <ele>84.25</ele>
        <time>2021-03-20T08:35:25Z</time>
      </trkpt>
      <trkpt lat="49.11824" lon="0.73968">
        <ele>83.77</ele>
        <time>2021-03-20T08:35:26Z</time>
      </trkpt>
      <trkpt lat="49.11822" lon="0.73957">
        <ele>83.77</ele>
        <time>2021-03-20T08:35:27Z</time>
      </trkpt>
      <trkpt lat="49.11819" lon="0.73947">
        <ele>83.29</ele>
        <time>2021-03-20T08:35:28Z</time>
      </trkpt>
      <trkpt lat="49.11816" lon="0.73936">
        <ele>83.29</ele>
        <time>2021-03-20T08:35:29Z</time>
      </trkpt>
      <trkpt lat="49.11812" lon="0.73926">
        <ele>82.81</ele>
        <time>2021-03-20T08:35:30Z</time>
      </trkpt>
      <trkpt lat="49.11808" lon="0.73917">
        <ele>82.33</ele>
        <time>2021-03-20T08:35:31Z</time>
      </trkpt>
      <trkpt lat="49.11793" lon="0.73878">
        <ele>80.41</ele>
        <time>2021-03-20T08:35:35Z</time>
      </trkpt>
      <trkpt lat="49.11791" lon="0.73869">
        <ele>79.93</ele>
        <time>2021-03-20T08:35:36Z</time>
      </trkpt>
      <trkpt lat="49.11791" lon="0.73861">
        <ele>79.93</ele>
        <time>2021-03-20T08:35:37Z</time>
      </trkpt>
      <trkpt lat="49.11791" lon="0.73854">
        <ele>79.45</ele>
        <time>2021-03-20T08:35:38Z</time>
      </trkpt>
      <trkpt lat="49.11792" lon="0.7385">
        <ele>79.45</ele>
        <time>2021-03-20T08:35:39Z</time>
      </trkpt>
      <trkpt lat="49.11791" lon="0.73849">
        <ele>79.93</ele>
        <time>2021-03-20T08:35:49Z</time>
      </trkpt>
      <trkpt lat="49.11792" lon="0.73847">
        <ele>80.41</ele>
        <time>2021-03-20T08:35:59Z</time>
      </trkpt>
      <trkpt lat="49.11793" lon="0.73845">
        <ele>79.45</ele>
        <time>2021-03-20T08:36:00Z</time>
      </trkpt>
      <trkpt lat="49.11794" lon="0.73843">
        <ele>79.45</ele>
        <time>2021-03-20T08:36:01Z</time>
      </trkpt>
      <trkpt lat="49.11821" lon="0.73796">
        <ele>78</ele>
        <time>2021-03-20T08:36:13Z</time>
      </trkpt>
      <trkpt lat="49.1182" lon="0.7379">
        <ele>78</ele>
        <time>2021-03-20T08:36:14Z</time>
      </trkpt>
      <trkpt lat="49.11819" lon="0.73786">
        <ele>78</ele>
        <time>2021-03-20T08:36:15Z</time>
      </trkpt>
      <trkpt lat="49.11807" lon="0.73739">
        <ele>77.04</ele>
        <time>2021-03-20T08:36:24Z</time>
      </trkpt>
      <trkpt lat="49.11805" lon="0.73742">
        <ele>77.04</ele>
        <time>2021-03-20T08:36:26Z</time>
      </trkpt>
      <trkpt lat="49.11805" lon="0.73745">
        <ele>77.04</ele>
        <time>2021-03-20T08:36:27Z</time>
      </trkpt>
      <trkpt lat="49.11806" lon="0.73748">
        <ele>77.04</ele>
        <time>2021-03-20T08:36:28Z</time>
      </trkpt>
      <trkpt lat="49.11818" lon="0.738">
        <ele>77.04</ele>
        <time>2021-03-20T08:36:42Z</time>
      </trkpt>
      <trkpt lat="49.11818" lon="0.73801">
        <ele>77.04</ele>
        <time>2021-03-20T08:36:44Z</time>
      </trkpt>
      <trkpt lat="49.1182" lon="0.73803">
        <ele>77.04</ele>
        <time>2021-03-20T08:36:45Z</time>
      </trkpt>
      <trkpt lat="49.11822" lon="0.73804">
        <ele>77.04</ele>
        <time>2021-03-20T08:36:46Z</time>
      </trkpt>
      <trkpt lat="49.11825" lon="0.73804">
        <ele>77.04</ele>
        <time>2021-03-20T08:36:47Z</time>
      </trkpt>
      <trkpt lat="49.11828" lon="0.73804">
        <ele>77.04</ele>
        <time>2021-03-20T08:36:48Z</time>
      </trkpt>
      <trkpt lat="49.11831" lon="0.73802">
        <ele>77.04</ele>
        <time>2021-03-20T08:36:49Z</time>
      </trkpt>
      <trkpt lat="49.11834" lon="0.738">
        <ele>77.04</ele>
        <time>2021-03-20T08:36:50Z</time>
      </trkpt>
      <trkpt lat="49.11892" lon="0.73775">
        <ele>76.08</ele>
        <time>2021-03-20T08:37:07Z</time>
      </trkpt>
      <trkpt lat="49.11897" lon="0.73775">
        <ele>76.08</ele>
        <time>2021-03-20T08:37:09Z</time>
      </trkpt>
      <trkpt lat="49.11899" lon="0.73778">
        <ele>76.08</ele>
        <time>2021-03-20T08:37:10Z</time>
      </trkpt>
      <trkpt lat="49.11899" lon="0.73781">
        <ele>76.08</ele>
        <time>2021-03-20T08:37:11Z</time>
      </trkpt>
      <trkpt lat="49.11899" lon="0.73783">
        <ele>76.08</ele>
        <time>2021-03-20T08:37:12Z</time>
      </trkpt>
      <trkpt lat="49.119" lon="0.73785">
        <ele>76.08</ele>
        <time>2021-03-20T08:37:13Z</time>
      </trkpt>
      <trkpt lat="49.119" lon="0.73787">
        <ele>76.08</ele>
        <time>2021-03-20T08:37:14Z</time>
      </trkpt>
      <trkpt lat="49.119" lon="0.73789">
        <ele>76.08</ele>
        <time>2021-03-20T08:37:15Z</time>
      </trkpt>
      <trkpt lat="49.119" lon="0.73791">
        <ele>76.08</ele>
        <time>2021-03-20T08:37:16Z</time>
      </trkpt>
      <trkpt lat="49.119" lon="0.73793">
        <ele>76.08</ele>
        <time>2021-03-20T08:37:17Z</time>
      </trkpt>
      <trkpt lat="49.11902" lon="0.73801">
        <ele>77.52</ele>
        <time>2021-03-20T08:37:21Z</time>
      </trkpt>
      <trkpt lat="49.11905" lon="0.73838">
        <ele>78.97</ele>
        <time>2021-03-20T08:37:36Z</time>
      </trkpt>
      <trkpt lat="49.11909" lon="0.73866">
        <ele>82.33</ele>
        <time>2021-03-20T08:37:49Z</time>
      </trkpt>
      <trkpt lat="49.11914" lon="0.73904">
        <ele>82.81</ele>
        <time>2021-03-20T08:38:06Z</time>
      </trkpt>
      <trkpt lat="49.11916" lon="0.73933">
        <ele>84.73</ele>
        <time>2021-03-20T08:38:19Z</time>
      </trkpt>
      <trkpt lat="49.11916" lon="0.73942">
        <ele>85.21</ele>
        <time>2021-03-20T08:38:25Z</time>
      </trkpt>
      <trkpt lat="49.11916" lon="0.73971">
        <ele>86.66</ele>
        <time>2021-03-20T08:38:39Z</time>
      </trkpt>
      <trkpt lat="49.11916" lon="0.73974">
        <ele>86.66</ele>
        <time>2021-03-20T08:38:40Z</time>
      </trkpt>
      <trkpt lat="49.11911" lon="0.74008">
        <ele>89.06</ele>
        <time>2021-03-20T08:38:56Z</time>
      </trkpt>
      <trkpt lat="49.1191" lon="0.74021">
        <ele>90.02</ele>
        <time>2021-03-20T08:39:02Z</time>
      </trkpt>
      <trkpt lat="49.1191" lon="0.74023">
        <ele>90.5</ele>
        <time>2021-03-20T08:39:03Z</time>
      </trkpt>
      <trkpt lat="49.11916" lon="0.74044">
        <ele>92.42</ele>
        <time>2021-03-20T08:39:16Z</time>
      </trkpt>
      <trkpt lat="49.11927" lon="0.74061">
        <ele>95.79</ele>
        <time>2021-03-20T08:39:30Z</time>
      </trkpt>
      <trkpt lat="49.1193" lon="0.74063">
        <ele>96.27</ele>
        <time>2021-03-20T08:39:34Z</time>
      </trkpt>
      <trkpt lat="49.11944" lon="0.74076">
        <ele>97.71</ele>
        <time>2021-03-20T08:39:48Z</time>
      </trkpt>
      <trkpt lat="49.11964" lon="0.7409">
        <ele>100.11</ele>
        <time>2021-03-20T08:40:04Z</time>
      </trkpt>
      <trkpt lat="49.11978" lon="0.74099">
        <ele>102.52</ele>
        <time>2021-03-20T08:40:17Z</time>
      </trkpt>
      <trkpt lat="49.11985" lon="0.74103">
        <ele>102.52</ele>
        <time>2021-03-20T08:40:22Z</time>
      </trkpt>
      <trkpt lat="49.12009" lon="0.7412">
        <ele>105.4</ele>
        <time>2021-03-20T08:40:40Z</time>
      </trkpt>
      <trkpt lat="49.1203" lon="0.74128">
        <ele>108.29</ele>
        <time>2021-03-20T08:40:56Z</time>
      </trkpt>
      <trkpt lat="49.12045" lon="0.74133">
        <ele>110.69</ele>
        <time>2021-03-20T08:41:09Z</time>
      </trkpt>
      <trkpt lat="49.12057" lon="0.74135">
        <ele>112.13</ele>
        <time>2021-03-20T08:41:18Z</time>
      </trkpt>
      <trkpt lat="49.12063" lon="0.74136">
        <ele>113.09</ele>
        <time>2021-03-20T08:41:23Z</time>
      </trkpt>
      <trkpt lat="49.12078" lon="0.74145">
        <ele>115.01</ele>
        <time>2021-03-20T08:41:37Z</time>
      </trkpt>
      <trkpt lat="49.12081" lon="0.74147">
        <ele>115.5</ele>
        <time>2021-03-20T08:41:40Z</time>
      </trkpt>
      <trkpt lat="49.12087" lon="0.74151">
        <ele>115.98</ele>
        <time>2021-03-20T08:41:44Z</time>
      </trkpt>
      <trkpt lat="49.12091" lon="0.74155">
        <ele>116.46</ele>
        <time>2021-03-20T08:41:47Z</time>
      </trkpt>
      <trkpt lat="49.12101" lon="0.74169">
        <ele>118.38</ele>
        <time>2021-03-20T08:41:59Z</time>
      </trkpt>
      <trkpt lat="49.12104" lon="0.74174">
        <ele>119.34</ele>
        <time>2021-03-20T08:42:03Z</time>
      </trkpt>
      <trkpt lat="49.12105" lon="0.74175">
        <ele>119.34</ele>
        <time>2021-03-20T08:42:04Z</time>
      </trkpt>
      <trkpt lat="49.12115" lon="0.74196">
        <ele>121.26</ele>
        <time>2021-03-20T08:42:19Z</time>
      </trkpt>
      <trkpt lat="49.12126" lon="0.74218">
        <ele>123.67</ele>
        <time>2021-03-20T08:42:34Z</time>
      </trkpt>
      <trkpt lat="49.12135" lon="0.74246">
        <ele>126.07</ele>
        <time>2021-03-20T08:42:51Z</time>
      </trkpt>
      <trkpt lat="49.12144" lon="0.74265">
        <ele>127.99</ele>
        <time>2021-03-20T08:43:05Z</time>
      </trkpt>
      <trkpt lat="49.12148" lon="0.7427">
        <ele>128.47</ele>
        <time>2021-03-20T08:43:09Z</time>
      </trkpt>
      <trkpt lat="49.12166" lon="0.7429">
        <ele>130.88</ele>
        <time>2021-03-20T08:43:24Z</time>
      </trkpt>
      <trkpt lat="49.12171" lon="0.74294">
        <ele>130.88</ele>
        <time>2021-03-20T08:43:53Z</time>
      </trkpt>
      <trkpt lat="49.12174" lon="0.74299">
        <ele>131.36</ele>
        <time>2021-03-20T08:43:57Z</time>
      </trkpt>
      <trkpt lat="49.12189" lon="0.74323">
        <ele>133.76</ele>
        <time>2021-03-20T08:44:13Z</time>
      </trkpt>
      <trkpt lat="49.1219" lon="0.74324">
        <ele>134.24</ele>
        <time>2021-03-20T08:44:14Z</time>
      </trkpt>
      <trkpt lat="49.12191" lon="0.74325">
        <ele>134.24</ele>
        <time>2021-03-20T08:44:15Z</time>
      </trkpt>
      <trkpt lat="49.12208" lon="0.74341">
        <ele>136.64</ele>
        <time>2021-03-20T08:44:30Z</time>
      </trkpt>
      <trkpt lat="49.12223" lon="0.74344">
        <ele>138.09</ele>
        <time>2021-03-20T08:44:40Z</time>
      </trkpt>
      <trkpt lat="49.12224" lon="0.74344">
        <ele>138.09</ele>
        <time>2021-03-20T08:44:41Z</time>
      </trkpt>
      <trkpt lat="49.12226" lon="0.74344">
        <ele>139.05</ele>
        <time>2021-03-20T08:44:42Z</time>
      </trkpt>
      <trkpt lat="49.12227" lon="0.74344">
        <ele>139.05</ele>
        <time>2021-03-20T08:44:43Z</time>
      </trkpt>
      <trkpt lat="49.12229" lon="0.74345">
        <ele>139.05</ele>
        <time>2021-03-20T08:44:44Z</time>
      </trkpt>
      <trkpt lat="49.1223" lon="0.74345">
        <ele>139.53</ele>
        <time>2021-03-20T08:44:45Z</time>
      </trkpt>
      <trkpt lat="49.12231" lon="0.74344">
        <ele>139.53</ele>
        <time>2021-03-20T08:44:46Z</time>
      </trkpt>
      <trkpt lat="49.12252" lon="0.74352">
        <ele>141.93</ele>
        <time>2021-03-20T08:45:02Z</time>
      </trkpt>
      <trkpt lat="49.12253" lon="0.74353">
        <ele>141.93</ele>
        <time>2021-03-20T08:45:03Z</time>
      </trkpt>
      <trkpt lat="49.12254" lon="0.74354">
        <ele>141.93</ele>
        <time>2021-03-20T08:45:04Z</time>
      </trkpt>
      <trkpt lat="49.12256" lon="0.74355">
        <ele>142.41</ele>
        <time>2021-03-20T08:45:05Z</time>
      </trkpt>
      <trkpt lat="49.12257" lon="0.74356">
        <ele>142.41</ele>
        <time>2021-03-20T08:45:06Z</time>
      </trkpt>
      <trkpt lat="49.12258" lon="0.74357">
        <ele>142.41</ele>
        <time>2021-03-20T08:45:07Z</time>
      </trkpt>
      <trkpt lat="49.1226" lon="0.74358">
        <ele>142.41</ele>
        <time>2021-03-20T08:45:08Z</time>
      </trkpt>
      <trkpt lat="49.12261" lon="0.7436">
        <ele>142.89</ele>
        <time>2021-03-20T08:45:09Z</time>
      </trkpt>
      <trkpt lat="49.12262" lon="0.74361">
        <ele>143.37</ele>
        <time>2021-03-20T08:45:10Z</time>
      </trkpt>
      <trkpt lat="49.12263" lon="0.74363">
        <ele>143.37</ele>
        <time>2021-03-20T08:45:11Z</time>
      </trkpt>
      <trkpt lat="49.12265" lon="0.74364">
        <ele>143.37</ele>
        <time>2021-03-20T08:45:12Z</time>
      </trkpt>
      <trkpt lat="49.12266" lon="0.74366">
        <ele>143.85</ele>
        <time>2021-03-20T08:45:13Z</time>
      </trkpt>
      <trkpt lat="49.12267" lon="0.74368">
        <ele>143.85</ele>
        <time>2021-03-20T08:45:14Z</time>
      </trkpt>
      <trkpt lat="49.12268" lon="0.7437">
        <ele>143.85</ele>
        <time>2021-03-20T08:45:15Z</time>
      </trkpt>
      <trkpt lat="49.12281" lon="0.74394">
        <ele>146.74</ele>
        <time>2021-03-20T08:45:29Z</time>
      </trkpt>
      <trkpt lat="49.12281" lon="0.74396">
        <ele>146.74</ele>
        <time>2021-03-20T08:45:30Z</time>
      </trkpt>
      <trkpt lat="49.12284" lon="0.74401">
        <ele>147.22</ele>
        <time>2021-03-20T08:45:33Z</time>
      </trkpt>
      <trkpt lat="49.12285" lon="0.74403">
        <ele>147.22</ele>
        <time>2021-03-20T08:45:34Z</time>
      </trkpt>
      <trkpt lat="49.12286" lon="0.74405">
        <ele>148.18</ele>
        <time>2021-03-20T08:45:35Z</time>
      </trkpt>
      <trkpt lat="49.12299" lon="0.74446">
        <ele>149.62</ele>
        <time>2021-03-20T08:45:53Z</time>
      </trkpt>
      <trkpt lat="49.12317" lon="0.74481">
        <ele>150.58</ele>
        <time>2021-03-20T08:46:08Z</time>
      </trkpt>
      <trkpt lat="49.1236" lon="0.74506">
        <ele>152.03</ele>
        <time>2021-03-20T08:46:27Z</time>
      </trkpt>
      <trkpt lat="49.12402" lon="0.74531">
        <ele>153.47</ele>
        <time>2021-03-20T08:46:45Z</time>
      </trkpt>
      <trkpt lat="49.12404" lon="0.7453">
        <ele>153.47</ele>
        <time>2021-03-20T08:46:46Z</time>
      </trkpt>
      <trkpt lat="49.12405" lon="0.74529">
        <ele>153.47</ele>
        <time>2021-03-20T08:46:47Z</time>
      </trkpt>
      <trkpt lat="49.12407" lon="0.74528">
        <ele>153.47</ele>
        <time>2021-03-20T08:46:48Z</time>
      </trkpt>
      <trkpt lat="49.12408" lon="0.74526">
        <ele>153.95</ele>
        <time>2021-03-20T08:46:49Z</time>
      </trkpt>
      <trkpt lat="49.12408" lon="0.74524">
        <ele>153.95</ele>
        <time>2021-03-20T08:46:50Z</time>
      </trkpt>
      <trkpt lat="49.12408" lon="0.74521">
        <ele>153.95</ele>
        <time>2021-03-20T08:46:51Z</time>
      </trkpt>
      <trkpt lat="49.12409" lon="0.74519">
        <ele>153.95</ele>
        <time>2021-03-20T08:46:52Z</time>
      </trkpt>
      <trkpt lat="49.12416" lon="0.74478">
        <ele>154.43</ele>
        <time>2021-03-20T08:47:06Z</time>
      </trkpt>
      <trkpt lat="49.12415" lon="0.74475">
        <ele>154.43</ele>
        <time>2021-03-20T08:47:07Z</time>
      </trkpt>
      <trkpt lat="49.12414" lon="0.74473">
        <ele>154.43</ele>
        <time>2021-03-20T08:47:08Z</time>
      </trkpt>
      <trkpt lat="49.12413" lon="0.74471">
        <ele>154.43</ele>
        <time>2021-03-20T08:47:09Z</time>
      </trkpt>
      <trkpt lat="49.12413" lon="0.74468">
        <ele>154.43</ele>
        <time>2021-03-20T08:47:10Z</time>
      </trkpt>
      <trkpt lat="49.12412" lon="0.74466">
        <ele>154.43</ele>
        <time>2021-03-20T08:47:11Z</time>
      </trkpt>
      <trkpt lat="49.12412" lon="0.74463">
        <ele>154.43</ele>
        <time>2021-03-20T08:47:12Z</time>
      </trkpt>
      <trkpt lat="49.12402" lon="0.74421">
        <ele>152.99</ele>
        <time>2021-03-20T08:47:23Z</time>
      </trkpt>
      <trkpt lat="49.12395" lon="0.74374">
        <ele>152.51</ele>
        <time>2021-03-20T08:47:32Z</time>
      </trkpt>
      <trkpt lat="49.12403" lon="0.74311">
        <ele>152.03</ele>
        <time>2021-03-20T08:47:43Z</time>
      </trkpt>
      <trkpt lat="49.12417" lon="0.74268">
        <ele>152.51</ele>
        <time>2021-03-20T08:47:52Z</time>
      </trkpt>
      <trkpt lat="49.12421" lon="0.74258">
        <ele>152.51</ele>
        <time>2021-03-20T08:47:55Z</time>
      </trkpt>
      <trkpt lat="49.12422" lon="0.74253">
        <ele>152.51</ele>
        <time>2021-03-20T08:47:56Z</time>
      </trkpt>
      <trkpt lat="49.12427" lon="0.74221">
        <ele>153.95</ele>
        <time>2021-03-20T08:48:05Z</time>
      </trkpt>
      <trkpt lat="49.12428" lon="0.7422">
        <ele>153.95</ele>
        <time>2021-03-20T08:48:06Z</time>
      </trkpt>
      <trkpt lat="49.12429" lon="0.74216">
        <ele>153.95</ele>
        <time>2021-03-20T08:48:08Z</time>
      </trkpt>
      <trkpt lat="49.12429" lon="0.74214">
        <ele>153.95</ele>
        <time>2021-03-20T08:48:09Z</time>
      </trkpt>
      <trkpt lat="49.12427" lon="0.74205">
        <ele>152.51</ele>
        <time>2021-03-20T08:48:12Z</time>
      </trkpt>
      <trkpt lat="49.12422" lon="0.74171">
        <ele>150.58</ele>
        <time>2021-03-20T08:48:23Z</time>
      </trkpt>
      <trkpt lat="49.12422" lon="0.74174">
        <ele>150.58</ele>
        <time>2021-03-20T08:48:34Z</time>
      </trkpt>
      <trkpt lat="49.12424" lon="0.74184">
        <ele>152.03</ele>
        <time>2021-03-20T08:48:48Z</time>
      </trkpt>
      <trkpt lat="49.12426" lon="0.74202">
        <ele>152.51</ele>
        <time>2021-03-20T08:48:59Z</time>
      </trkpt>
      <trkpt lat="49.12426" lon="0.74205">
        <ele>152.51</ele>
        <time>2021-03-20T08:49:00Z</time>
      </trkpt>
      <trkpt lat="49.12425" lon="0.74207">
        <ele>152.51</ele>
        <time>2021-03-20T08:49:01Z</time>
      </trkpt>
      <trkpt lat="49.12416" lon="0.74248">
        <ele>152.51</ele>
        <time>2021-03-20T08:49:12Z</time>
      </trkpt>
      <trkpt lat="49.12404" lon="0.74288">
        <ele>152.51</ele>
        <time>2021-03-20T08:49:22Z</time>
      </trkpt>
      <trkpt lat="49.12395" lon="0.74316">
        <ele>152.51</ele>
        <time>2021-03-20T08:49:30Z</time>
      </trkpt>
      <trkpt lat="49.12391" lon="0.74341">
        <ele>152.51</ele>
        <time>2021-03-20T08:49:43Z</time>
      </trkpt>
      <trkpt lat="49.12392" lon="0.74342">
        <ele>150.58</ele>
        <time>2021-03-20T08:49:53Z</time>
      </trkpt>
      <trkpt lat="49.12391" lon="0.74342">
        <ele>153.95</ele>
        <time>2021-03-20T08:49:58Z</time>
      </trkpt>
      <trkpt lat="49.12391" lon="0.74344">
        <ele>152.99</ele>
        <time>2021-03-20T08:50:05Z</time>
      </trkpt>
      <trkpt lat="49.12394" lon="0.7438">
        <ele>152.51</ele>
        <time>2021-03-20T08:50:16Z</time>
      </trkpt>
      <trkpt lat="49.12401" lon="0.74428">
        <ele>153.47</ele>
        <time>2021-03-20T08:50:28Z</time>
      </trkpt>
      <trkpt lat="49.1241" lon="0.74467">
        <ele>153.95</ele>
        <time>2021-03-20T08:50:40Z</time>
      </trkpt>
      <trkpt lat="49.1241" lon="0.7447">
        <ele>153.95</ele>
        <time>2021-03-20T08:50:41Z</time>
      </trkpt>
      <trkpt lat="49.12409" lon="0.74474">
        <ele>153.95</ele>
        <time>2021-03-20T08:50:42Z</time>
      </trkpt>
      <trkpt lat="49.12409" lon="0.74478">
        <ele>153.95</ele>
        <time>2021-03-20T08:50:43Z</time>
      </trkpt>
      <trkpt lat="49.12408" lon="0.74483">
        <ele>153.95</ele>
        <time>2021-03-20T08:50:44Z</time>
      </trkpt>
      <trkpt lat="49.12408" lon="0.74487">
        <ele>153.95</ele>
        <time>2021-03-20T08:50:45Z</time>
      </trkpt>
      <trkpt lat="49.12408" lon="0.74491">
        <ele>153.95</ele>
        <time>2021-03-20T08:50:46Z</time>
      </trkpt>
      <trkpt lat="49.12408" lon="0.74495">
        <ele>153.95</ele>
        <time>2021-03-20T08:50:47Z</time>
      </trkpt>
      <trkpt lat="49.12408" lon="0.74498">
        <ele>153.95</ele>
        <time>2021-03-20T08:50:48Z</time>
      </trkpt>
      <trkpt lat="49.12407" lon="0.74524">
        <ele>153.95</ele>
        <time>2021-03-20T08:51:00Z</time>
      </trkpt>
      <trkpt lat="49.12408" lon="0.74524">
        <ele>151.06</ele>
        <time>2021-03-20T08:51:03Z</time>
      </trkpt>
      <trkpt lat="49.12411" lon="0.74526">
        <ele>153.95</ele>
        <time>2021-03-20T08:52:16Z</time>
      </trkpt>
      <trkpt lat="49.12402" lon="0.74527">
        <ele>152.99</ele>
        <time>2021-03-20T08:52:34Z</time>
      </trkpt>
      <trkpt lat="49.12404" lon="0.74525">
        <ele>154.91</ele>
        <time>2021-03-20T08:52:38Z</time>
      </trkpt>
      <trkpt lat="49.12406" lon="0.74527">
        <ele>152.03</ele>
        <time>2021-03-20T08:53:00Z</time>
      </trkpt>
      <trkpt lat="49.12408" lon="0.74528">
        <ele>153.47</ele>
        <time>2021-03-20T08:53:03Z</time>
      </trkpt>
      <trkpt lat="49.12411" lon="0.74528">
        <ele>153.95</ele>
        <time>2021-03-20T08:53:14Z</time>
      </trkpt>
      <trkpt lat="49.12411" lon="0.74526">
        <ele>153.95</ele>
        <time>2021-03-20T08:53:40Z</time>
      </trkpt>
      <trkpt lat="49.12411" lon="0.74525">
        <ele>153.95</ele>
        <time>2021-03-20T08:53:54Z</time>
      </trkpt>
      <trkpt lat="49.12416" lon="0.74482">
        <ele>153.95</ele>
        <time>2021-03-20T08:54:09Z</time>
      </trkpt>
      <trkpt lat="49.12415" lon="0.74477">
        <ele>153.95</ele>
        <time>2021-03-20T08:54:18Z</time>
      </trkpt>
      <trkpt lat="49.12409" lon="0.74452">
        <ele>152.51</ele>
        <time>2021-03-20T08:54:26Z</time>
      </trkpt>
      <trkpt lat="49.12406" lon="0.74438">
        <ele>153.47</ele>
        <time>2021-03-20T08:54:30Z</time>
      </trkpt>
      <trkpt lat="49.12397" lon="0.74383">
        <ele>151.54</ele>
        <time>2021-03-20T08:54:42Z</time>
      </trkpt>
      <trkpt lat="49.12397" lon="0.74378">
        <ele>151.54</ele>
        <time>2021-03-20T08:54:43Z</time>
      </trkpt>
      <trkpt lat="49.12401" lon="0.74321">
        <ele>151.54</ele>
        <time>2021-03-20T08:54:57Z</time>
      </trkpt>
      <trkpt lat="49.12402" lon="0.74319">
        <ele>151.54</ele>
        <time>2021-03-20T08:54:58Z</time>
      </trkpt>
      <trkpt lat="49.12402" lon="0.74316">
        <ele>151.54</ele>
        <time>2021-03-20T08:54:59Z</time>
      </trkpt>
      <trkpt lat="49.12402" lon="0.74312">
        <ele>151.54</ele>
        <time>2021-03-20T08:55:00Z</time>
      </trkpt>
      <trkpt lat="49.12403" lon="0.74309">
        <ele>151.54</ele>
        <time>2021-03-20T08:55:01Z</time>
      </trkpt>
      <trkpt lat="49.12404" lon="0.74306">
        <ele>151.54</ele>
        <time>2021-03-20T08:55:02Z</time>
      </trkpt>
      <trkpt lat="49.12418" lon="0.74262">
        <ele>151.54</ele>
        <time>2021-03-20T08:55:14Z</time>
      </trkpt>
      <trkpt lat="49.12429" lon="0.74214">
        <ele>151.54</ele>
        <time>2021-03-20T08:55:26Z</time>
      </trkpt>
      <trkpt lat="49.12432" lon="0.7421">
        <ele>151.54</ele>
        <time>2021-03-20T08:55:29Z</time>
      </trkpt>
      <trkpt lat="49.12443" lon="0.74185">
        <ele>151.54</ele>
        <time>2021-03-20T08:55:41Z</time>
      </trkpt>
      <trkpt lat="49.12443" lon="0.74162">
        <ele>151.06</ele>
        <time>2021-03-20T08:55:48Z</time>
      </trkpt>
      <trkpt lat="49.12444" lon="0.74158">
        <ele>151.06</ele>
        <time>2021-03-20T08:55:49Z</time>
      </trkpt>
      <trkpt lat="49.12445" lon="0.74156">
        <ele>151.06</ele>
        <time>2021-03-20T08:55:50Z</time>
      </trkpt>
      <trkpt lat="49.12447" lon="0.74154">
        <ele>151.06</ele>
        <time>2021-03-20T08:55:51Z</time>
      </trkpt>
      <trkpt lat="49.12449" lon="0.74153">
        <ele>151.06</ele>
        <time>2021-03-20T08:55:52Z</time>
      </trkpt>
      <trkpt lat="49.1245" lon="0.74152">
        <ele>151.06</ele>
        <time>2021-03-20T08:55:53Z</time>
      </trkpt>
      <trkpt lat="49.12451" lon="0.7415">
        <ele>151.06</ele>
        <time>2021-03-20T08:55:54Z</time>
      </trkpt>
      <trkpt lat="49.12452" lon="0.74148">
        <ele>151.06</ele>
        <time>2021-03-20T08:55:55Z</time>
      </trkpt>
      <trkpt lat="49.12453" lon="0.74146">
        <ele>151.06</ele>
        <time>2021-03-20T08:55:56Z</time>
      </trkpt>
      <trkpt lat="49.12453" lon="0.74143">
        <ele>151.06</ele>
        <time>2021-03-20T08:55:57Z</time>
      </trkpt>
      <trkpt lat="49.12453" lon="0.7414">
        <ele>151.06</ele>
        <time>2021-03-20T08:55:58Z</time>
      </trkpt>
      <trkpt lat="49.12452" lon="0.74137">
        <ele>151.06</ele>
        <time>2021-03-20T08:55:59Z</time>
      </trkpt>
      <trkpt lat="49.12452" lon="0.74133">
        <ele>150.58</ele>
        <time>2021-03-20T08:56:00Z</time>
      </trkpt>
      <trkpt lat="49.12449" lon="0.74121">
        <ele>150.1</ele>
        <time>2021-03-20T08:56:03Z</time>
      </trkpt>
      <trkpt lat="49.12449" lon="0.74116">
        <ele>150.1</ele>
        <time>2021-03-20T08:56:04Z</time>
      </trkpt>
      <trkpt lat="49.1245" lon="0.74112">
        <ele>149.62</ele>
        <time>2021-03-20T08:56:05Z</time>
      </trkpt>
      <trkpt lat="49.12451" lon="0.7411">
        <ele>149.62</ele>
        <time>2021-03-20T08:56:06Z</time>
      </trkpt>
      <trkpt lat="49.12451" lon="0.74107">
        <ele>149.62</ele>
        <time>2021-03-20T08:56:07Z</time>
      </trkpt>
      <trkpt lat="49.12452" lon="0.74104">
        <ele>149.62</ele>
        <time>2021-03-20T08:56:08Z</time>
      </trkpt>
      <trkpt lat="49.12454" lon="0.74103">
        <ele>149.62</ele>
        <time>2021-03-20T08:56:09Z</time>
      </trkpt>
      <trkpt lat="49.12456" lon="0.74101">
        <ele>149.62</ele>
        <time>2021-03-20T08:56:10Z</time>
      </trkpt>
      <trkpt lat="49.12457" lon="0.74101">
        <ele>149.62</ele>
        <time>2021-03-20T08:56:11Z</time>
      </trkpt>
      <trkpt lat="49.12459" lon="0.741">
        <ele>149.62</ele>
        <time>2021-03-20T08:56:12Z</time>
      </trkpt>
      <trkpt lat="49.12461" lon="0.74098">
        <ele>149.62</ele>
        <time>2021-03-20T08:56:13Z</time>
      </trkpt>
      <trkpt lat="49.12463" lon="0.74096">
        <ele>149.62</ele>
        <time>2021-03-20T08:56:14Z</time>
      </trkpt>
      <trkpt lat="49.12465" lon="0.74095">
        <ele>149.62</ele>
        <time>2021-03-20T08:56:15Z</time>
      </trkpt>
      <trkpt lat="49.12501" lon="0.74075">
        <ele>149.62</ele>
        <time>2021-03-20T08:56:30Z</time>
      </trkpt>
      <trkpt lat="49.12537" lon="0.74059">
        <ele>150.58</ele>
        <time>2021-03-20T08:56:42Z</time>
      </trkpt>
      <trkpt lat="49.12577" lon="0.74039">
        <ele>150.58</ele>
        <time>2021-03-20T08:56:54Z</time>
      </trkpt>
      <trkpt lat="49.12614" lon="0.7402">
        <ele>151.06</ele>
        <time>2021-03-20T08:57:06Z</time>
      </trkpt>
      <trkpt lat="49.12649" lon="0.74003">
        <ele>151.06</ele>
        <time>2021-03-20T08:57:17Z</time>
      </trkpt>
      <trkpt lat="49.12688" lon="0.73986">
        <ele>149.62</ele>
        <time>2021-03-20T08:57:29Z</time>
      </trkpt>
      <trkpt lat="49.12726" lon="0.73966">
        <ele>147.7</ele>
        <time>2021-03-20T08:57:40Z</time>
      </trkpt>
      <trkpt lat="49.12757" lon="0.73943">
        <ele>143.85</ele>
        <time>2021-03-20T08:57:51Z</time>
      </trkpt>
      <trkpt lat="49.1277" lon="0.73933">
        <ele>142.89</ele>
        <time>2021-03-20T08:57:55Z</time>
      </trkpt>
      <trkpt lat="49.12778" lon="0.73926">
        <ele>141.93</ele>
        <time>2021-03-20T08:57:57Z</time>
      </trkpt>
      <trkpt lat="49.12799" lon="0.73912">
        <ele>139.05</ele>
        <time>2021-03-20T08:58:03Z</time>
      </trkpt>
      <trkpt lat="49.12804" lon="0.73911">
        <ele>138.57</ele>
        <time>2021-03-20T08:58:04Z</time>
      </trkpt>
      <trkpt lat="49.1283" lon="0.73904">
        <ele>140.49</ele>
        <time>2021-03-20T08:58:13Z</time>
      </trkpt>
      <trkpt lat="49.12832" lon="0.73904">
        <ele>140.49</ele>
        <time>2021-03-20T08:58:14Z</time>
      </trkpt>
      <trkpt lat="49.12848" lon="0.73899">
        <ele>143.37</ele>
        <time>2021-03-20T08:58:25Z</time>
      </trkpt>
      <trkpt lat="49.12855" lon="0.73898">
        <ele>141.45</ele>
        <time>2021-03-20T08:58:32Z</time>
      </trkpt>
      <trkpt lat="49.12861" lon="0.73898">
        <ele>143.37</ele>
        <time>2021-03-20T08:58:36Z</time>
      </trkpt>
      <trkpt lat="49.12871" lon="0.73896">
        <ele>143.85</ele>
        <time>2021-03-20T08:58:42Z</time>
      </trkpt>
      <trkpt lat="49.12872" lon="0.73895">
        <ele>143.85</ele>
        <time>2021-03-20T08:58:43Z</time>
      </trkpt>
      <trkpt lat="49.12874" lon="0.73896">
        <ele>143.85</ele>
        <time>2021-03-20T08:58:44Z</time>
      </trkpt>
      <trkpt lat="49.12875" lon="0.73896">
        <ele>143.85</ele>
        <time>2021-03-20T08:58:45Z</time>
      </trkpt>
      <trkpt lat="49.12877" lon="0.73896">
        <ele>144.34</ele>
        <time>2021-03-20T08:58:46Z</time>
      </trkpt>
      <trkpt lat="49.12898" lon="0.73892">
        <ele>144.82</ele>
        <time>2021-03-20T08:59:00Z</time>
      </trkpt>
      <trkpt lat="49.12933" lon="0.73886">
        <ele>144.82</ele>
        <time>2021-03-20T08:59:13Z</time>
      </trkpt>
      <trkpt lat="49.12945" lon="0.73916">
        <ele>144.82</ele>
        <time>2021-03-20T08:59:21Z</time>
      </trkpt>
      <trkpt lat="49.12945" lon="0.73928">
        <ele>143.37</ele>
        <time>2021-03-20T08:59:23Z</time>
      </trkpt>
      <trkpt lat="49.12945" lon="0.73986">
        <ele>142.41</ele>
        <time>2021-03-20T08:59:33Z</time>
      </trkpt>
      <trkpt lat="49.12945" lon="0.73993">
        <ele>142.41</ele>
        <time>2021-03-20T08:59:34Z</time>
      </trkpt>
      <trkpt lat="49.12945" lon="0.74014">
        <ele>141.45</ele>
        <time>2021-03-20T08:59:37Z</time>
      </trkpt>
      <trkpt lat="49.12945" lon="0.74022">
        <ele>140.49</ele>
        <time>2021-03-20T08:59:38Z</time>
      </trkpt>
      <trkpt lat="49.12945" lon="0.74029">
        <ele>140.49</ele>
        <time>2021-03-20T08:59:39Z</time>
      </trkpt>
      <trkpt lat="49.12945" lon="0.74061">
        <ele>142.89</ele>
        <time>2021-03-20T08:59:48Z</time>
      </trkpt>
      <trkpt lat="49.12956" lon="0.74087">
        <ele>144.34</ele>
        <time>2021-03-20T09:00:01Z</time>
      </trkpt>
      <trkpt lat="49.12977" lon="0.74105">
        <ele>144.82</ele>
        <time>2021-03-20T09:00:12Z</time>
      </trkpt>
      <trkpt lat="49.13004" lon="0.74117">
        <ele>145.78</ele>
        <time>2021-03-20T09:00:24Z</time>
      </trkpt>
      <trkpt lat="49.13046" lon="0.74137">
        <ele>146.26</ele>
        <time>2021-03-20T09:00:37Z</time>
      </trkpt>
      <trkpt lat="49.13093" lon="0.74186">
        <ele>147.22</ele>
        <time>2021-03-20T09:00:50Z</time>
      </trkpt>
      <trkpt lat="49.1314" lon="0.74241">
        <ele>148.66</ele>
        <time>2021-03-20T09:01:07Z</time>
      </trkpt>
      <trkpt lat="49.13144" lon="0.74247">
        <ele>148.66</ele>
        <time>2021-03-20T09:01:10Z</time>
      </trkpt>
      <trkpt lat="49.13149" lon="0.74252">
        <ele>148.66</ele>
        <time>2021-03-20T09:01:13Z</time>
      </trkpt>
      <trkpt lat="49.13151" lon="0.74254">
        <ele>148.66</ele>
        <time>2021-03-20T09:01:14Z</time>
      </trkpt>
      <trkpt lat="49.13154" lon="0.74257">
        <ele>148.66</ele>
        <time>2021-03-20T09:01:15Z</time>
      </trkpt>
      <trkpt lat="49.13156" lon="0.74258">
        <ele>148.66</ele>
        <time>2021-03-20T09:01:16Z</time>
      </trkpt>
      <trkpt lat="49.13159" lon="0.7426">
        <ele>148.66</ele>
        <time>2021-03-20T09:01:17Z</time>
      </trkpt>
      <trkpt lat="49.13162" lon="0.7426">
        <ele>148.66</ele>
        <time>2021-03-20T09:01:18Z</time>
      </trkpt>
      <trkpt lat="49.13164" lon="0.74258">
        <ele>148.66</ele>
        <time>2021-03-20T09:01:19Z</time>
      </trkpt>
      <trkpt lat="49.13165" lon="0.74255">
        <ele>148.66</ele>
        <time>2021-03-20T09:01:20Z</time>
      </trkpt>
      <trkpt lat="49.13166" lon="0.74252">
        <ele>148.66</ele>
        <time>2021-03-20T09:01:21Z</time>
      </trkpt>
      <trkpt lat="49.13167" lon="0.7425">
        <ele>148.66</ele>
        <time>2021-03-20T09:01:22Z</time>
      </trkpt>
      <trkpt lat="49.13168" lon="0.74248">
        <ele>148.66</ele>
        <time>2021-03-20T09:01:23Z</time>
      </trkpt>
      <trkpt lat="49.13169" lon="0.74246">
        <ele>148.66</ele>
        <time>2021-03-20T09:01:24Z</time>
      </trkpt>
      <trkpt lat="49.13174" lon="0.74235">
        <ele>148.66</ele>
        <time>2021-03-20T09:01:28Z</time>
      </trkpt>
      <trkpt lat="49.13183" lon="0.74233">
        <ele>148.66</ele>
        <time>2021-03-20T09:01:33Z</time>
      </trkpt>
      <trkpt lat="49.13215" lon="0.74217">
        <ele>148.66</ele>
        <time>2021-03-20T09:01:47Z</time>
      </trkpt>
      <trkpt lat="49.13254" lon="0.74206">
        <ele>148.66</ele>
        <time>2021-03-20T09:02:01Z</time>
      </trkpt>
      <trkpt lat="49.1327" lon="0.74165">
        <ele>148.66</ele>
        <time>2021-03-20T09:02:11Z</time>
      </trkpt>
      <trkpt lat="49.13273" lon="0.74163">
        <ele>148.66</ele>
        <time>2021-03-20T09:02:12Z</time>
      </trkpt>
      <trkpt lat="49.13276" lon="0.74162">
        <ele>148.66</ele>
        <time>2021-03-20T09:02:13Z</time>
      </trkpt>
      <trkpt lat="49.13288" lon="0.74154">
        <ele>148.66</ele>
        <time>2021-03-20T09:02:19Z</time>
      </trkpt>
      <trkpt lat="49.1329" lon="0.74155">
        <ele>148.66</ele>
        <time>2021-03-20T09:02:20Z</time>
      </trkpt>
      <trkpt lat="49.13293" lon="0.74157">
        <ele>148.66</ele>
        <time>2021-03-20T09:02:21Z</time>
      </trkpt>
      <trkpt lat="49.13294" lon="0.74159">
        <ele>148.66</ele>
        <time>2021-03-20T09:02:22Z</time>
      </trkpt>
      <trkpt lat="49.13296" lon="0.74161">
        <ele>147.7</ele>
        <time>2021-03-20T09:02:23Z</time>
      </trkpt>
      <trkpt lat="49.13297" lon="0.74164">
        <ele>147.7</ele>
        <time>2021-03-20T09:02:24Z</time>
      </trkpt>
      <trkpt lat="49.13299" lon="0.74166">
        <ele>147.7</ele>
        <time>2021-03-20T09:02:25Z</time>
      </trkpt>
      <trkpt lat="49.1331" lon="0.74185">
        <ele>148.18</ele>
        <time>2021-03-20T09:02:34Z</time>
      </trkpt>
      <trkpt lat="49.13318" lon="0.742">
        <ele>148.66</ele>
        <time>2021-03-20T09:02:42Z</time>
      </trkpt>
      <trkpt lat="49.13321" lon="0.74202">
        <ele>148.66</ele>
        <time>2021-03-20T09:02:44Z</time>
      </trkpt>
      <trkpt lat="49.13324" lon="0.74203">
        <ele>148.66</ele>
        <time>2021-03-20T09:02:45Z</time>
      </trkpt>
      <trkpt lat="49.13335" lon="0.74207">
        <ele>149.62</ele>
        <time>2021-03-20T09:02:58Z</time>
      </trkpt>
      <trkpt lat="49.13335" lon="0.74206">
        <ele>147.7</ele>
        <time>2021-03-20T09:03:01Z</time>
      </trkpt>
      <trkpt lat="49.13335" lon="0.74205">
        <ele>150.58</ele>
        <time>2021-03-20T09:03:03Z</time>
      </trkpt>
      <trkpt lat="49.13335" lon="0.74205">
        <ele>149.14</ele>
        <time>2021-03-20T09:03:04Z</time>
      </trkpt>
      <trkpt lat="49.13354" lon="0.74208">
        <ele>148.66</ele>
        <time>2021-03-20T09:03:22Z</time>
      </trkpt>
      <trkpt lat="49.13395" lon="0.74199">
        <ele>149.14</ele>
        <time>2021-03-20T09:03:36Z</time>
      </trkpt>
      <trkpt lat="49.13445" lon="0.74182">
        <ele>149.14</ele>
        <time>2021-03-20T09:03:49Z</time>
      </trkpt>
      <trkpt lat="49.13471" lon="0.74174">
        <ele>149.14</ele>
        <time>2021-03-20T09:03:55Z</time>
      </trkpt>
      <trkpt lat="49.13475" lon="0.74172">
        <ele>149.14</ele>
        <time>2021-03-20T09:03:56Z</time>
      </trkpt>
      <trkpt lat="49.13511" lon="0.74161">
        <ele>149.14</ele>
        <time>2021-03-20T09:04:04Z</time>
      </trkpt>
      <trkpt lat="49.13516" lon="0.7416">
        <ele>149.14</ele>
        <time>2021-03-20T09:04:05Z</time>
      </trkpt>
      <trkpt lat="49.13521" lon="0.74159">
        <ele>149.14</ele>
        <time>2021-03-20T09:04:06Z</time>
      </trkpt>
      <trkpt lat="49.13526" lon="0.74158">
        <ele>149.14</ele>
        <time>2021-03-20T09:04:07Z</time>
      </trkpt>
      <trkpt lat="49.1353" lon="0.74156">
        <ele>149.14</ele>
        <time>2021-03-20T09:04:08Z</time>
      </trkpt>
      <trkpt lat="49.13548" lon="0.74151">
        <ele>146.26</ele>
        <time>2021-03-20T09:04:12Z</time>
      </trkpt>
      <trkpt lat="49.13552" lon="0.74149">
        <ele>150.1</ele>
        <time>2021-03-20T09:04:13Z</time>
      </trkpt>
      <trkpt lat="49.13557" lon="0.74148">
        <ele>149.14</ele>
        <time>2021-03-20T09:04:14Z</time>
      </trkpt>
      <trkpt lat="49.13616" lon="0.74133">
        <ele>148.66</ele>
        <time>2021-03-20T09:04:26Z</time>
      </trkpt>
      <trkpt lat="49.13705" lon="0.74121">
        <ele>147.7</ele>
        <time>2021-03-20T09:04:43Z</time>
      </trkpt>
      <trkpt lat="49.13778" lon="0.74117">
        <ele>146.74</ele>
        <time>2021-03-20T09:04:58Z</time>
      </trkpt>
      <trkpt lat="49.13789" lon="0.74116">
        <ele>146.26</ele>
        <time>2021-03-20T09:05:02Z</time>
      </trkpt>
      <trkpt lat="49.13786" lon="0.74113">
        <ele>146.26</ele>
        <time>2021-03-20T09:05:05Z</time>
      </trkpt>
      <trkpt lat="49.13783" lon="0.74114">
        <ele>146.26</ele>
        <time>2021-03-20T09:05:06Z</time>
      </trkpt>
      <trkpt lat="49.1378" lon="0.74114">
        <ele>146.26</ele>
        <time>2021-03-20T09:05:07Z</time>
      </trkpt>
      <trkpt lat="49.13777" lon="0.74115">
        <ele>146.26</ele>
        <time>2021-03-20T09:05:08Z</time>
      </trkpt>
      <trkpt lat="49.13775" lon="0.74114">
        <ele>146.26</ele>
        <time>2021-03-20T09:05:09Z</time>
      </trkpt>
      <trkpt lat="49.13772" lon="0.74114">
        <ele>146.26</ele>
        <time>2021-03-20T09:05:10Z</time>
      </trkpt>
      <trkpt lat="49.1376" lon="0.74113">
        <ele>146.26</ele>
        <time>2021-03-20T09:05:15Z</time>
      </trkpt>
      <trkpt lat="49.1376" lon="0.74111">
        <ele>146.26</ele>
        <time>2021-03-20T09:05:16Z</time>
      </trkpt>
      <trkpt lat="49.13758" lon="0.7411">
        <ele>146.26</ele>
        <time>2021-03-20T09:05:23Z</time>
      </trkpt>
      <trkpt lat="49.13757" lon="0.74111">
        <ele>146.26</ele>
        <time>2021-03-20T09:05:24Z</time>
      </trkpt>
      <trkpt lat="49.13756" lon="0.74113">
        <ele>146.26</ele>
        <time>2021-03-20T09:05:25Z</time>
      </trkpt>
      <trkpt lat="49.13753" lon="0.74115">
        <ele>146.26</ele>
        <time>2021-03-20T09:05:26Z</time>
      </trkpt>
      <trkpt lat="49.13751" lon="0.74116">
        <ele>146.26</ele>
        <time>2021-03-20T09:05:27Z</time>
      </trkpt>
      <trkpt lat="49.13748" lon="0.74116">
        <ele>146.26</ele>
        <time>2021-03-20T09:05:28Z</time>
      </trkpt>
      <trkpt lat="49.13745" lon="0.74115">
        <ele>146.26</ele>
        <time>2021-03-20T09:05:29Z</time>
      </trkpt>
      <trkpt lat="49.13678" lon="0.74119">
        <ele>148.18</ele>
        <time>2021-03-20T09:05:45Z</time>
      </trkpt>
      <trkpt lat="49.13664" lon="0.74118">
        <ele>148.18</ele>
        <time>2021-03-20T09:05:49Z</time>
      </trkpt>
      <trkpt lat="49.13667" lon="0.74095">
        <ele>148.18</ele>
        <time>2021-03-20T09:05:56Z</time>
      </trkpt>
      <trkpt lat="49.13694" lon="0.74091">
        <ele>148.18</ele>
        <time>2021-03-20T09:06:07Z</time>
      </trkpt>
      <trkpt lat="49.13701" lon="0.74082">
        <ele>148.18</ele>
        <time>2021-03-20T09:06:10Z</time>
      </trkpt>
      <trkpt lat="49.13725" lon="0.7409">
        <ele>146.74</ele>
        <time>2021-03-20T09:06:17Z</time>
      </trkpt>
      <trkpt lat="49.13757" lon="0.74084">
        <ele>145.78</ele>
        <time>2021-03-20T09:06:26Z</time>
      </trkpt>
      <trkpt lat="49.13778" lon="0.74068">
        <ele>145.78</ele>
        <time>2021-03-20T09:06:34Z</time>
      </trkpt>
      <trkpt lat="49.13776" lon="0.74058">
        <ele>145.78</ele>
        <time>2021-03-20T09:06:37Z</time>
      </trkpt>
      <trkpt lat="49.13772" lon="0.74053">
        <ele>145.78</ele>
        <time>2021-03-20T09:06:39Z</time>
      </trkpt>
      <trkpt lat="49.13771" lon="0.74049">
        <ele>145.78</ele>
        <time>2021-03-20T09:06:40Z</time>
      </trkpt>
      <trkpt lat="49.13771" lon="0.74045">
        <ele>145.78</ele>
        <time>2021-03-20T09:06:41Z</time>
      </trkpt>
      <trkpt lat="49.1377" lon="0.74041">
        <ele>145.78</ele>
        <time>2021-03-20T09:06:42Z</time>
      </trkpt>
      <trkpt lat="49.13769" lon="0.74038">
        <ele>145.78</ele>
        <time>2021-03-20T09:06:43Z</time>
      </trkpt>
      <trkpt lat="49.13769" lon="0.74036">
        <ele>145.78</ele>
        <time>2021-03-20T09:06:44Z</time>
      </trkpt>
      <trkpt lat="49.13768" lon="0.74033">
        <ele>145.78</ele>
        <time>2021-03-20T09:06:45Z</time>
      </trkpt>
      <trkpt lat="49.13768" lon="0.74029">
        <ele>145.78</ele>
        <time>2021-03-20T09:06:46Z</time>
      </trkpt>
      <trkpt lat="49.13767" lon="0.74025">
        <ele>145.78</ele>
        <time>2021-03-20T09:06:47Z</time>
      </trkpt>
      <trkpt lat="49.13764" lon="0.73978">
        <ele>145.78</ele>
        <time>2021-03-20T09:06:58Z</time>
      </trkpt>
      <trkpt lat="49.13765" lon="0.73948">
        <ele>145.3</ele>
        <time>2021-03-20T09:07:04Z</time>
      </trkpt>
      <trkpt lat="49.13767" lon="0.73944">
        <ele>145.3</ele>
        <time>2021-03-20T09:07:05Z</time>
      </trkpt>
      <trkpt lat="49.13769" lon="0.7394">
        <ele>145.3</ele>
        <time>2021-03-20T09:07:06Z</time>
      </trkpt>
      <trkpt lat="49.1377" lon="0.73936">
        <ele>145.3</ele>
        <time>2021-03-20T09:07:07Z</time>
      </trkpt>
      <trkpt lat="49.13771" lon="0.73932">
        <ele>145.3</ele>
        <time>2021-03-20T09:07:08Z</time>
      </trkpt>
      <trkpt lat="49.13771" lon="0.73928">
        <ele>145.3</ele>
        <time>2021-03-20T09:07:09Z</time>
      </trkpt>
      <trkpt lat="49.13771" lon="0.73923">
        <ele>145.3</ele>
        <time>2021-03-20T09:07:10Z</time>
      </trkpt>
      <trkpt lat="49.13771" lon="0.73919">
        <ele>144.82</ele>
        <time>2021-03-20T09:07:11Z</time>
      </trkpt>
      <trkpt lat="49.13769" lon="0.73916">
        <ele>144.82</ele>
        <time>2021-03-20T09:07:12Z</time>
      </trkpt>
      <trkpt lat="49.13766" lon="0.73915">
        <ele>144.82</ele>
        <time>2021-03-20T09:07:13Z</time>
      </trkpt>
      <trkpt lat="49.13764" lon="0.73914">
        <ele>144.82</ele>
        <time>2021-03-20T09:07:14Z</time>
      </trkpt>
      <trkpt lat="49.13762" lon="0.73914">
        <ele>144.82</ele>
        <time>2021-03-20T09:07:15Z</time>
      </trkpt>
      <trkpt lat="49.1376" lon="0.73914">
        <ele>144.82</ele>
        <time>2021-03-20T09:07:16Z</time>
      </trkpt>
      <trkpt lat="49.13758" lon="0.73913">
        <ele>144.82</ele>
        <time>2021-03-20T09:07:17Z</time>
      </trkpt>
      <trkpt lat="49.13756" lon="0.73911">
        <ele>144.82</ele>
        <time>2021-03-20T09:07:18Z</time>
      </trkpt>
      <trkpt lat="49.13755" lon="0.73907">
        <ele>144.82</ele>
        <time>2021-03-20T09:07:20Z</time>
      </trkpt>
      <trkpt lat="49.13754" lon="0.73902">
        <ele>144.82</ele>
        <time>2021-03-20T09:07:21Z</time>
      </trkpt>
      <trkpt lat="49.13754" lon="0.73898">
        <ele>144.82</ele>
        <time>2021-03-20T09:07:22Z</time>
      </trkpt>
      <trkpt lat="49.13754" lon="0.73894">
        <ele>144.82</ele>
        <time>2021-03-20T09:07:23Z</time>
      </trkpt>
      <trkpt lat="49.13755" lon="0.73891">
        <ele>144.82</ele>
        <time>2021-03-20T09:07:24Z</time>
      </trkpt>
      <trkpt lat="49.13757" lon="0.73889">
        <ele>143.85</ele>
        <time>2021-03-20T09:07:25Z</time>
      </trkpt>
      <trkpt lat="49.1376" lon="0.73887">
        <ele>143.37</ele>
        <time>2021-03-20T09:07:26Z</time>
      </trkpt>
      <trkpt lat="49.13762" lon="0.73885">
        <ele>143.37</ele>
        <time>2021-03-20T09:07:27Z</time>
      </trkpt>
      <trkpt lat="49.13764" lon="0.73884">
        <ele>143.37</ele>
        <time>2021-03-20T09:07:28Z</time>
      </trkpt>
      <trkpt lat="49.13766" lon="0.73882">
        <ele>143.37</ele>
        <time>2021-03-20T09:07:29Z</time>
      </trkpt>
      <trkpt lat="49.13767" lon="0.73881">
        <ele>143.37</ele>
        <time>2021-03-20T09:07:30Z</time>
      </trkpt>
      <trkpt lat="49.13767" lon="0.73878">
        <ele>143.37</ele>
        <time>2021-03-20T09:07:31Z</time>
      </trkpt>
      <trkpt lat="49.13767" lon="0.73876">
        <ele>143.37</ele>
        <time>2021-03-20T09:07:32Z</time>
      </trkpt>
      <trkpt lat="49.13767" lon="0.73874">
        <ele>143.37</ele>
        <time>2021-03-20T09:07:33Z</time>
      </trkpt>
      <trkpt lat="49.13768" lon="0.73871">
        <ele>143.37</ele>
        <time>2021-03-20T09:07:34Z</time>
      </trkpt>
      <trkpt lat="49.1377" lon="0.73869">
        <ele>143.37</ele>
        <time>2021-03-20T09:07:35Z</time>
      </trkpt>
      <trkpt lat="49.13772" lon="0.73869">
        <ele>143.37</ele>
        <time>2021-03-20T09:07:36Z</time>
      </trkpt>
      <trkpt lat="49.13774" lon="0.73869">
        <ele>143.37</ele>
        <time>2021-03-20T09:07:37Z</time>
      </trkpt>
      <trkpt lat="49.13782" lon="0.7387">
        <ele>143.37</ele>
        <time>2021-03-20T09:07:42Z</time>
      </trkpt>
      <trkpt lat="49.13784" lon="0.73866">
        <ele>143.37</ele>
        <time>2021-03-20T09:07:43Z</time>
      </trkpt>
      <trkpt lat="49.13785" lon="0.73863">
        <ele>142.89</ele>
        <time>2021-03-20T09:07:44Z</time>
      </trkpt>
      <trkpt lat="49.13788" lon="0.73861">
        <ele>142.89</ele>
        <time>2021-03-20T09:07:45Z</time>
      </trkpt>
      <trkpt lat="49.13791" lon="0.7386">
        <ele>142.89</ele>
        <time>2021-03-20T09:07:46Z</time>
      </trkpt>
      <trkpt lat="49.13802" lon="0.73858">
        <ele>141.45</ele>
        <time>2021-03-20T09:07:49Z</time>
      </trkpt>
      <trkpt lat="49.13822" lon="0.7385">
        <ele>142.41</ele>
        <time>2021-03-20T09:07:56Z</time>
      </trkpt>
      <trkpt lat="49.13839" lon="0.73847">
        <ele>143.37</ele>
        <time>2021-03-20T09:08:08Z</time>
      </trkpt>
      <trkpt lat="49.13863" lon="0.73861">
        <ele>143.37</ele>
        <time>2021-03-20T09:08:19Z</time>
      </trkpt>
      <trkpt lat="49.13896" lon="0.73869">
        <ele>144.34</ele>
        <time>2021-03-20T09:08:31Z</time>
      </trkpt>
      <trkpt lat="49.13916" lon="0.73852">
        <ele>144.34</ele>
        <time>2021-03-20T09:08:40Z</time>
      </trkpt>
      <trkpt lat="49.13918" lon="0.73851">
        <ele>144.34</ele>
        <time>2021-03-20T09:08:41Z</time>
      </trkpt>
      <trkpt lat="49.1392" lon="0.73849">
        <ele>144.34</ele>
        <time>2021-03-20T09:08:42Z</time>
      </trkpt>
      <trkpt lat="49.1392" lon="0.73837">
        <ele>142.89</ele>
        <time>2021-03-20T09:08:46Z</time>
      </trkpt>
      <trkpt lat="49.13918" lon="0.73834">
        <ele>142.89</ele>
        <time>2021-03-20T09:08:47Z</time>
      </trkpt>
      <trkpt lat="49.13916" lon="0.73832">
        <ele>142.89</ele>
        <time>2021-03-20T09:08:48Z</time>
      </trkpt>
      <trkpt lat="49.13914" lon="0.73831">
        <ele>142.89</ele>
        <time>2021-03-20T09:08:49Z</time>
      </trkpt>
      <trkpt lat="49.13912" lon="0.73829">
        <ele>142.89</ele>
        <time>2021-03-20T09:08:50Z</time>
      </trkpt>
      <trkpt lat="49.1391" lon="0.73829">
        <ele>142.89</ele>
        <time>2021-03-20T09:08:51Z</time>
      </trkpt>
      <trkpt lat="49.13881" lon="0.73829">
        <ele>142.41</ele>
        <time>2021-03-20T09:09:03Z</time>
      </trkpt>
      <trkpt lat="49.13855" lon="0.73837">
        <ele>142.41</ele>
        <time>2021-03-20T09:09:13Z</time>
      </trkpt>
      <trkpt lat="49.1385" lon="0.73841">
        <ele>142.41</ele>
        <time>2021-03-20T09:09:15Z</time>
      </trkpt>
      <trkpt lat="49.13847" lon="0.73842">
        <ele>142.41</ele>
        <time>2021-03-20T09:09:16Z</time>
      </trkpt>
      <trkpt lat="49.13845" lon="0.73842">
        <ele>142.41</ele>
        <time>2021-03-20T09:09:17Z</time>
      </trkpt>
      <trkpt lat="49.13841" lon="0.73842">
        <ele>142.41</ele>
        <time>2021-03-20T09:09:18Z</time>
      </trkpt>
      <trkpt lat="49.13838" lon="0.73843">
        <ele>142.41</ele>
        <time>2021-03-20T09:09:19Z</time>
      </trkpt>
      <trkpt lat="49.13835" lon="0.73844">
        <ele>142.41</ele>
        <time>2021-03-20T09:09:20Z</time>
      </trkpt>
      <trkpt lat="49.13831" lon="0.73847">
        <ele>142.41</ele>
        <time>2021-03-20T09:09:21Z</time>
      </trkpt>
      <trkpt lat="49.13827" lon="0.73849">
        <ele>142.41</ele>
        <time>2021-03-20T09:09:22Z</time>
      </trkpt>
      <trkpt lat="49.13821" lon="0.73851">
        <ele>141.93</ele>
        <time>2021-03-20T09:09:23Z</time>
      </trkpt>
      <trkpt lat="49.13817" lon="0.73851">
        <ele>141.93</ele>
        <time>2021-03-20T09:09:24Z</time>
      </trkpt>
      <trkpt lat="49.13812" lon="0.73849">
        <ele>140.97</ele>
        <time>2021-03-20T09:09:25Z</time>
      </trkpt>
      <trkpt lat="49.13807" lon="0.73847">
        <ele>140.97</ele>
        <time>2021-03-20T09:09:26Z</time>
      </trkpt>
      <trkpt lat="49.13805" lon="0.73847">
        <ele>140.97</ele>
        <time>2021-03-20T09:09:27Z</time>
      </trkpt>
      <trkpt lat="49.13793" lon="0.73845">
        <ele>142.41</ele>
        <time>2021-03-20T09:09:33Z</time>
      </trkpt>
      <trkpt lat="49.13792" lon="0.73843">
        <ele>142.41</ele>
        <time>2021-03-20T09:09:34Z</time>
      </trkpt>
      <trkpt lat="49.1379" lon="0.73842">
        <ele>142.41</ele>
        <time>2021-03-20T09:09:35Z</time>
      </trkpt>
      <trkpt lat="49.13788" lon="0.73843">
        <ele>142.41</ele>
        <time>2021-03-20T09:09:36Z</time>
      </trkpt>
      <trkpt lat="49.13786" lon="0.73844">
        <ele>142.41</ele>
        <time>2021-03-20T09:09:37Z</time>
      </trkpt>
      <trkpt lat="49.13784" lon="0.73845">
        <ele>142.41</ele>
        <time>2021-03-20T09:09:38Z</time>
      </trkpt>
      <trkpt lat="49.13782" lon="0.73845">
        <ele>142.41</ele>
        <time>2021-03-20T09:09:39Z</time>
      </trkpt>
      <trkpt lat="49.13779" lon="0.73845">
        <ele>142.89</ele>
        <time>2021-03-20T09:09:40Z</time>
      </trkpt>
      <trkpt lat="49.13777" lon="0.73845">
        <ele>142.89</ele>
        <time>2021-03-20T09:09:41Z</time>
      </trkpt>
      <trkpt lat="49.13774" lon="0.73845">
        <ele>142.89</ele>
        <time>2021-03-20T09:09:42Z</time>
      </trkpt>
      <trkpt lat="49.13747" lon="0.73851">
        <ele>142.89</ele>
        <time>2021-03-20T09:09:52Z</time>
      </trkpt>
      <trkpt lat="49.13714" lon="0.7386">
        <ele>143.37</ele>
        <time>2021-03-20T09:10:03Z</time>
      </trkpt>
      <trkpt lat="49.13693" lon="0.73873">
        <ele>143.85</ele>
        <time>2021-03-20T09:10:11Z</time>
      </trkpt>
      <trkpt lat="49.13675" lon="0.73883">
        <ele>143.85</ele>
        <time>2021-03-20T09:10:19Z</time>
      </trkpt>
      <trkpt lat="49.13672" lon="0.73883">
        <ele>144.34</ele>
        <time>2021-03-20T09:10:20Z</time>
      </trkpt>
      <trkpt lat="49.13644" lon="0.73901">
        <ele>144.82</ele>
        <time>2021-03-20T09:10:32Z</time>
      </trkpt>
      <trkpt lat="49.13613" lon="0.73906">
        <ele>145.3</ele>
        <time>2021-03-20T09:10:43Z</time>
      </trkpt>
      <trkpt lat="49.13578" lon="0.73909">
        <ele>145.3</ele>
        <time>2021-03-20T09:10:53Z</time>
      </trkpt>
      <trkpt lat="49.13542" lon="0.73914">
        <ele>145.3</ele>
        <time>2021-03-20T09:11:04Z</time>
      </trkpt>
      <trkpt lat="49.13505" lon="0.73916">
        <ele>145.3</ele>
        <time>2021-03-20T09:11:15Z</time>
      </trkpt>
      <trkpt lat="49.13475" lon="0.73917">
        <ele>145.3</ele>
        <time>2021-03-20T09:11:24Z</time>
      </trkpt>
      <trkpt lat="49.13435" lon="0.73921">
        <ele>145.3</ele>
        <time>2021-03-20T09:11:36Z</time>
      </trkpt>
      <trkpt lat="49.134" lon="0.73924">
        <ele>145.78</ele>
        <time>2021-03-20T09:11:46Z</time>
      </trkpt>
      <trkpt lat="49.13359" lon="0.73926">
        <ele>146.26</ele>
        <time>2021-03-20T09:11:58Z</time>
      </trkpt>
      <trkpt lat="49.13317" lon="0.73928">
        <ele>146.74</ele>
        <time>2021-03-20T09:12:10Z</time>
      </trkpt>
      <trkpt lat="49.13269" lon="0.73932">
        <ele>146.74</ele>
        <time>2021-03-20T09:12:24Z</time>
      </trkpt>
      <trkpt lat="49.13232" lon="0.73936">
        <ele>146.74</ele>
        <time>2021-03-20T09:12:38Z</time>
      </trkpt>
      <trkpt lat="49.13223" lon="0.73947">
        <ele>146.74</ele>
        <time>2021-03-20T09:12:44Z</time>
      </trkpt>
      <trkpt lat="49.13226" lon="0.73962">
        <ele>146.74</ele>
        <time>2021-03-20T09:12:50Z</time>
      </trkpt>
      <trkpt lat="49.13226" lon="0.7397">
        <ele>146.74</ele>
        <time>2021-03-20T09:12:54Z</time>
      </trkpt>
      <trkpt lat="49.13237" lon="0.73993">
        <ele>146.74</ele>
        <time>2021-03-20T09:13:10Z</time>
      </trkpt>
      <trkpt lat="49.13238" lon="0.73994">
        <ele>146.74</ele>
        <time>2021-03-20T09:13:12Z</time>
      </trkpt>
      <trkpt lat="49.13236" lon="0.73986">
        <ele>146.74</ele>
        <time>2021-03-20T09:13:16Z</time>
      </trkpt>
      <trkpt lat="49.13207" lon="0.73937">
        <ele>146.26</ele>
        <time>2021-03-20T09:13:30Z</time>
      </trkpt>
      <trkpt lat="49.1315" lon="0.7394">
        <ele>144.82</ele>
        <time>2021-03-20T09:13:44Z</time>
      </trkpt>
      <trkpt lat="49.13127" lon="0.73941">
        <ele>146.26</ele>
        <time>2021-03-20T09:13:51Z</time>
      </trkpt>
      <trkpt lat="49.13094" lon="0.73942">
        <ele>146.74</ele>
        <time>2021-03-20T09:14:01Z</time>
      </trkpt>
      <trkpt lat="49.13063" lon="0.73944">
        <ele>144.82</ele>
        <time>2021-03-20T09:14:09Z</time>
      </trkpt>
      <trkpt lat="49.13025" lon="0.73963">
        <ele>144.34</ele>
        <time>2021-03-20T09:14:21Z</time>
      </trkpt>
      <trkpt lat="49.13019" lon="0.74004">
        <ele>145.3</ele>
        <time>2021-03-20T09:14:33Z</time>
      </trkpt>
      <trkpt lat="49.1302" lon="0.74031">
        <ele>144.34</ele>
        <time>2021-03-20T09:14:40Z</time>
      </trkpt>
      <trkpt lat="49.13016" lon="0.74071">
        <ele>144.82</ele>
        <time>2021-03-20T09:14:51Z</time>
      </trkpt>
      <trkpt lat="49.13015" lon="0.74079">
        <ele>146.26</ele>
        <time>2021-03-20T09:15:08Z</time>
      </trkpt>
      <trkpt lat="49.13016" lon="0.74082">
        <ele>146.26</ele>
        <time>2021-03-20T09:15:39Z</time>
      </trkpt>
      <trkpt lat="49.13012" lon="0.74087">
        <ele>144.82</ele>
        <time>2021-03-20T09:16:03Z</time>
      </trkpt>
      <trkpt lat="49.13011" lon="0.74085">
        <ele>144.82</ele>
        <time>2021-03-20T09:16:14Z</time>
      </trkpt>
      <trkpt lat="49.13013" lon="0.74087">
        <ele>144.82</ele>
        <time>2021-03-20T09:16:16Z</time>
      </trkpt>
      <trkpt lat="49.13012" lon="0.74089">
        <ele>144.82</ele>
        <time>2021-03-20T09:16:17Z</time>
      </trkpt>
      <trkpt lat="49.13011" lon="0.74091">
        <ele>144.82</ele>
        <time>2021-03-20T09:16:18Z</time>
      </trkpt>
      <trkpt lat="49.1301" lon="0.74093">
        <ele>144.82</ele>
        <time>2021-03-20T09:16:19Z</time>
      </trkpt>
      <trkpt lat="49.13009" lon="0.74095">
        <ele>144.82</ele>
        <time>2021-03-20T09:16:20Z</time>
      </trkpt>
      <trkpt lat="49.13008" lon="0.74097">
        <ele>144.82</ele>
        <time>2021-03-20T09:16:21Z</time>
      </trkpt>
      <trkpt lat="49.13006" lon="0.74102">
        <ele>144.82</ele>
        <time>2021-03-20T09:16:23Z</time>
      </trkpt>
      <trkpt lat="49.13" lon="0.7412">
        <ele>146.26</ele>
        <time>2021-03-20T09:16:36Z</time>
      </trkpt>
      <trkpt lat="49.12998" lon="0.74124">
        <ele>146.26</ele>
        <time>2021-03-20T09:16:41Z</time>
      </trkpt>
      <trkpt lat="49.12997" lon="0.74124">
        <ele>145.78</ele>
        <time>2021-03-20T09:16:53Z</time>
      </trkpt>
      <trkpt lat="49.13" lon="0.74126">
        <ele>145.78</ele>
        <time>2021-03-20T09:17:13Z</time>
      </trkpt>
      <trkpt lat="49.13011" lon="0.74131">
        <ele>147.22</ele>
        <time>2021-03-20T09:17:20Z</time>
      </trkpt>
      <trkpt lat="49.13037" lon="0.7414">
        <ele>147.7</ele>
        <time>2021-03-20T09:17:31Z</time>
      </trkpt>
      <trkpt lat="49.13043" lon="0.74142">
        <ele>147.7</ele>
        <time>2021-03-20T09:17:37Z</time>
      </trkpt>
      <trkpt lat="49.13014" lon="0.74134">
        <ele>147.7</ele>
        <time>2021-03-20T09:17:49Z</time>
      </trkpt>
      <trkpt lat="49.12999" lon="0.74127">
        <ele>146.74</ele>
        <time>2021-03-20T09:17:53Z</time>
      </trkpt>
      <trkpt lat="49.12958" lon="0.74096">
        <ele>146.26</ele>
        <time>2021-03-20T09:18:04Z</time>
      </trkpt>
      <trkpt lat="49.12937" lon="0.74079">
        <ele>145.78</ele>
        <time>2021-03-20T09:18:10Z</time>
      </trkpt>
      <trkpt lat="49.12929" lon="0.7407">
        <ele>144.82</ele>
        <time>2021-03-20T09:18:12Z</time>
      </trkpt>
      <trkpt lat="49.12916" lon="0.74045">
        <ele>144.82</ele>
        <time>2021-03-20T09:18:16Z</time>
      </trkpt>
      <trkpt lat="49.12899" lon="0.73989">
        <ele>146.26</ele>
        <time>2021-03-20T09:18:25Z</time>
      </trkpt>
      <trkpt lat="49.1289" lon="0.73969">
        <ele>146.74</ele>
        <time>2021-03-20T09:18:30Z</time>
      </trkpt>
      <trkpt lat="49.12886" lon="0.7397">
        <ele>146.74</ele>
        <time>2021-03-20T09:18:41Z</time>
      </trkpt>
      <trkpt lat="49.12899" lon="0.74004">
        <ele>146.74</ele>
        <time>2021-03-20T09:18:55Z</time>
      </trkpt>
      <trkpt lat="49.12904" lon="0.74023">
        <ele>145.3</ele>
        <time>2021-03-20T09:18:59Z</time>
      </trkpt>
      <trkpt lat="49.12916" lon="0.74055">
        <ele>144.82</ele>
        <time>2021-03-20T09:19:05Z</time>
      </trkpt>
      <trkpt lat="49.12945" lon="0.74083">
        <ele>146.26</ele>
        <time>2021-03-20T09:19:17Z</time>
      </trkpt>
      <trkpt lat="49.12967" lon="0.74102">
        <ele>146.74</ele>
        <time>2021-03-20T09:19:28Z</time>
      </trkpt>
      <trkpt lat="49.13" lon="0.74122">
        <ele>147.7</ele>
        <time>2021-03-20T09:19:41Z</time>
      </trkpt>
      <trkpt lat="49.1303" lon="0.74135">
        <ele>148.18</ele>
        <time>2021-03-20T09:19:53Z</time>
      </trkpt>
      <trkpt lat="49.13052" lon="0.74143">
        <ele>148.18</ele>
        <time>2021-03-20T09:20:00Z</time>
      </trkpt>
      <trkpt lat="49.13092" lon="0.74187">
        <ele>149.14</ele>
        <time>2021-03-20T09:20:13Z</time>
      </trkpt>
      <trkpt lat="49.13141" lon="0.7424">
        <ele>150.58</ele>
        <time>2021-03-20T09:20:30Z</time>
      </trkpt>
      <trkpt lat="49.13149" lon="0.74262">
        <ele>151.06</ele>
        <time>2021-03-20T09:20:39Z</time>
      </trkpt>
      <trkpt lat="49.13159" lon="0.74266">
        <ele>151.06</ele>
        <time>2021-03-20T09:20:45Z</time>
      </trkpt>
      <trkpt lat="49.13162" lon="0.74265">
        <ele>151.06</ele>
        <time>2021-03-20T09:20:46Z</time>
      </trkpt>
      <trkpt lat="49.13191" lon="0.74258">
        <ele>148.66</ele>
        <time>2021-03-20T09:20:56Z</time>
      </trkpt>
      <trkpt lat="49.13199" lon="0.74255">
        <ele>151.54</ele>
        <time>2021-03-20T09:20:59Z</time>
      </trkpt>
      <trkpt lat="49.13203" lon="0.74254">
        <ele>148.18</ele>
        <time>2021-03-20T09:21:01Z</time>
      </trkpt>
      <trkpt lat="49.13204" lon="0.74253">
        <ele>149.62</ele>
        <time>2021-03-20T09:21:02Z</time>
      </trkpt>
      <trkpt lat="49.13209" lon="0.74252">
        <ele>151.06</ele>
        <time>2021-03-20T09:21:05Z</time>
      </trkpt>
      <trkpt lat="49.13213" lon="0.74251">
        <ele>150.1</ele>
        <time>2021-03-20T09:21:07Z</time>
      </trkpt>
      <trkpt lat="49.13219" lon="0.7425">
        <ele>152.03</ele>
        <time>2021-03-20T09:21:10Z</time>
      </trkpt>
      <trkpt lat="49.13224" lon="0.74248">
        <ele>150.58</ele>
        <time>2021-03-20T09:21:12Z</time>
      </trkpt>
      <trkpt lat="49.13279" lon="0.74235">
        <ele>150.1</ele>
        <time>2021-03-20T09:21:26Z</time>
      </trkpt>
      <trkpt lat="49.13333" lon="0.74218">
        <ele>152.03</ele>
        <time>2021-03-20T09:21:40Z</time>
      </trkpt>
      <trkpt lat="49.13413" lon="0.74195">
        <ele>152.03</ele>
        <time>2021-03-20T09:21:57Z</time>
      </trkpt>
      <trkpt lat="49.13483" lon="0.74173">
        <ele>152.03</ele>
        <time>2021-03-20T09:22:12Z</time>
      </trkpt>
      <trkpt lat="49.13577" lon="0.74145">
        <ele>152.03</ele>
        <time>2021-03-20T09:22:31Z</time>
      </trkpt>
      <trkpt lat="49.13663" lon="0.74124">
        <ele>151.06</ele>
        <time>2021-03-20T09:22:47Z</time>
      </trkpt>
      <trkpt lat="49.13767" lon="0.74122">
        <ele>149.62</ele>
        <time>2021-03-20T09:23:04Z</time>
      </trkpt>
      <trkpt lat="49.13866" lon="0.741">
        <ele>149.14</ele>
        <time>2021-03-20T09:23:23Z</time>
      </trkpt>
      <trkpt lat="49.13976" lon="0.74058">
        <ele>147.7</ele>
        <time>2021-03-20T09:23:44Z</time>
      </trkpt>
      <trkpt lat="49.14062" lon="0.73994">
        <ele>147.22</ele>
        <time>2021-03-20T09:24:02Z</time>
      </trkpt>
      <trkpt lat="49.14137" lon="0.7392">
        <ele>145.78</ele>
        <time>2021-03-20T09:24:19Z</time>
      </trkpt>
      <trkpt lat="49.14219" lon="0.7385">
        <ele>144.82</ele>
        <time>2021-03-20T09:24:37Z</time>
      </trkpt>
      <trkpt lat="49.14237" lon="0.73833">
        <ele>144.82</ele>
        <time>2021-03-20T09:24:43Z</time>
      </trkpt>
      <trkpt lat="49.14237" lon="0.73829">
        <ele>144.82</ele>
        <time>2021-03-20T09:24:44Z</time>
      </trkpt>
      <trkpt lat="49.14234" lon="0.73824">
        <ele>144.82</ele>
        <time>2021-03-20T09:24:45Z</time>
      </trkpt>
      <trkpt lat="49.14231" lon="0.73822">
        <ele>144.82</ele>
        <time>2021-03-20T09:24:46Z</time>
      </trkpt>
      <trkpt lat="49.14227" lon="0.73821">
        <ele>144.82</ele>
        <time>2021-03-20T09:24:47Z</time>
      </trkpt>
      <trkpt lat="49.14223" lon="0.73819">
        <ele>144.82</ele>
        <time>2021-03-20T09:24:48Z</time>
      </trkpt>
      <trkpt lat="49.14218" lon="0.73819">
        <ele>144.82</ele>
        <time>2021-03-20T09:24:49Z</time>
      </trkpt>
      <trkpt lat="49.14182" lon="0.7381">
        <ele>144.82</ele>
        <time>2021-03-20T09:24:56Z</time>
      </trkpt>
      <trkpt lat="49.14092" lon="0.73786">
        <ele>145.78</ele>
        <time>2021-03-20T09:25:12Z</time>
      </trkpt>
      <trkpt lat="49.14" lon="0.73768">
        <ele>142.89</ele>
        <time>2021-03-20T09:25:27Z</time>
      </trkpt>
      <trkpt lat="49.13934" lon="0.73768">
        <ele>139.53</ele>
        <time>2021-03-20T09:25:38Z</time>
      </trkpt>
      <trkpt lat="49.1387" lon="0.73779">
        <ele>136.64</ele>
        <time>2021-03-20T09:25:49Z</time>
      </trkpt>
      <trkpt lat="49.13822" lon="0.73791">
        <ele>133.28</ele>
        <time>2021-03-20T09:25:57Z</time>
      </trkpt>
      <trkpt lat="49.13758" lon="0.73796">
        <ele>130.4</ele>
        <time>2021-03-20T09:26:06Z</time>
      </trkpt>
      <trkpt lat="49.13712" lon="0.73801">
        <ele>128.47</ele>
        <time>2021-03-20T09:26:12Z</time>
      </trkpt>
      <trkpt lat="49.13705" lon="0.73803">
        <ele>127.99</ele>
        <time>2021-03-20T09:26:13Z</time>
      </trkpt>
      <trkpt lat="49.13647" lon="0.7381">
        <ele>124.63</ele>
        <time>2021-03-20T09:26:20Z</time>
      </trkpt>
      <trkpt lat="49.13591" lon="0.73805">
        <ele>121.74</ele>
        <time>2021-03-20T09:26:27Z</time>
      </trkpt>
      <trkpt lat="49.13522" lon="0.73796">
        <ele>118.38</ele>
        <time>2021-03-20T09:26:35Z</time>
      </trkpt>
      <trkpt lat="49.13464" lon="0.73783">
        <ele>115.98</ele>
        <time>2021-03-20T09:26:43Z</time>
      </trkpt>
      <trkpt lat="49.13453" lon="0.73783">
        <ele>115.5</ele>
        <time>2021-03-20T09:26:45Z</time>
      </trkpt>
      <trkpt lat="49.13447" lon="0.73782">
        <ele>115.5</ele>
        <time>2021-03-20T09:26:46Z</time>
      </trkpt>
      <trkpt lat="49.13443" lon="0.73781">
        <ele>115.5</ele>
        <time>2021-03-20T09:26:47Z</time>
      </trkpt>
      <trkpt lat="49.13435" lon="0.7378">
        <ele>115.5</ele>
        <time>2021-03-20T09:26:49Z</time>
      </trkpt>
      <trkpt lat="49.13393" lon="0.73765">
        <ele>114.05</ele>
        <time>2021-03-20T09:26:58Z</time>
      </trkpt>
      <trkpt lat="49.13342" lon="0.73746">
        <ele>112.13</ele>
        <time>2021-03-20T09:27:11Z</time>
      </trkpt>
      <trkpt lat="49.13317" lon="0.73734">
        <ele>110.21</ele>
        <time>2021-03-20T09:27:17Z</time>
      </trkpt>
      <trkpt lat="49.13296" lon="0.7372">
        <ele>108.77</ele>
        <time>2021-03-20T09:27:21Z</time>
      </trkpt>
      <trkpt lat="49.13291" lon="0.73718">
        <ele>109.25</ele>
        <time>2021-03-20T09:27:22Z</time>
      </trkpt>
      <trkpt lat="49.13267" lon="0.73705">
        <ele>105.88</ele>
        <time>2021-03-20T09:27:29Z</time>
      </trkpt>
      <trkpt lat="49.13252" lon="0.73696">
        <ele>104.44</ele>
        <time>2021-03-20T09:27:33Z</time>
      </trkpt>
      <trkpt lat="49.13208" lon="0.73684">
        <ele>102.52</ele>
        <time>2021-03-20T09:27:42Z</time>
      </trkpt>
      <trkpt lat="49.13159" lon="0.73673">
        <ele>99.15</ele>
        <time>2021-03-20T09:27:50Z</time>
      </trkpt>
      <trkpt lat="49.13107" lon="0.73661">
        <ele>96.75</ele>
        <time>2021-03-20T09:27:57Z</time>
      </trkpt>
      <trkpt lat="49.13044" lon="0.73627">
        <ele>92.9</ele>
        <time>2021-03-20T09:28:06Z</time>
      </trkpt>
      <trkpt lat="49.13011" lon="0.73615">
        <ele>91.46</ele>
        <time>2021-03-20T09:28:10Z</time>
      </trkpt>
      <trkpt lat="49.12996" lon="0.73612">
        <ele>90.5</ele>
        <time>2021-03-20T09:28:12Z</time>
      </trkpt>
      <trkpt lat="49.12937" lon="0.73621">
        <ele>87.14</ele>
        <time>2021-03-20T09:28:19Z</time>
      </trkpt>
      <trkpt lat="49.12902" lon="0.73633">
        <ele>85.69</ele>
        <time>2021-03-20T09:28:23Z</time>
      </trkpt>
      <trkpt lat="49.12896" lon="0.73634">
        <ele>85.21</ele>
        <time>2021-03-20T09:28:24Z</time>
      </trkpt>
      <trkpt lat="49.12887" lon="0.73635">
        <ele>85.21</ele>
        <time>2021-03-20T09:28:25Z</time>
      </trkpt>
      <trkpt lat="49.12878" lon="0.73634">
        <ele>84.25</ele>
        <time>2021-03-20T09:28:26Z</time>
      </trkpt>
      <trkpt lat="49.1287" lon="0.73633">
        <ele>84.25</ele>
        <time>2021-03-20T09:28:27Z</time>
      </trkpt>
      <trkpt lat="49.12861" lon="0.7363">
        <ele>83.29</ele>
        <time>2021-03-20T09:28:28Z</time>
      </trkpt>
      <trkpt lat="49.12853" lon="0.73626">
        <ele>82.81</ele>
        <time>2021-03-20T09:28:29Z</time>
      </trkpt>
      <trkpt lat="49.12845" lon="0.73622">
        <ele>82.33</ele>
        <time>2021-03-20T09:28:30Z</time>
      </trkpt>
      <trkpt lat="49.12837" lon="0.73616">
        <ele>81.85</ele>
        <time>2021-03-20T09:28:31Z</time>
      </trkpt>
      <trkpt lat="49.12828" lon="0.7361">
        <ele>81.37</ele>
        <time>2021-03-20T09:28:32Z</time>
      </trkpt>
      <trkpt lat="49.12803" lon="0.73596">
        <ele>80.89</ele>
        <time>2021-03-20T09:28:35Z</time>
      </trkpt>
      <trkpt lat="49.12797" lon="0.73594">
        <ele>80.41</ele>
        <time>2021-03-20T09:28:36Z</time>
      </trkpt>
      <trkpt lat="49.12789" lon="0.73592">
        <ele>79.93</ele>
        <time>2021-03-20T09:28:37Z</time>
      </trkpt>
      <trkpt lat="49.12781" lon="0.73592">
        <ele>79.93</ele>
        <time>2021-03-20T09:28:38Z</time>
      </trkpt>
      <trkpt lat="49.12774" lon="0.73594">
        <ele>79.93</ele>
        <time>2021-03-20T09:28:39Z</time>
      </trkpt>
      <trkpt lat="49.12768" lon="0.73596">
        <ele>80.41</ele>
        <time>2021-03-20T09:28:40Z</time>
      </trkpt>
      <trkpt lat="49.12764" lon="0.73598">
        <ele>80.41</ele>
        <time>2021-03-20T09:28:41Z</time>
      </trkpt>
      <trkpt lat="49.12756" lon="0.736">
        <ele>80.41</ele>
        <time>2021-03-20T09:28:48Z</time>
      </trkpt>
      <trkpt lat="49.12721" lon="0.73618">
        <ele>80.41</ele>
        <time>2021-03-20T09:28:59Z</time>
      </trkpt>
      <trkpt lat="49.12683" lon="0.73636">
        <ele>79.93</ele>
        <time>2021-03-20T09:29:08Z</time>
      </trkpt>
      <trkpt lat="49.1268" lon="0.73638">
        <ele>79.93</ele>
        <time>2021-03-20T09:29:09Z</time>
      </trkpt>
      <trkpt lat="49.12661" lon="0.73648">
        <ele>79.93</ele>
        <time>2021-03-20T09:29:14Z</time>
      </trkpt>
      <trkpt lat="49.12657" lon="0.73651">
        <ele>79.93</ele>
        <time>2021-03-20T09:29:15Z</time>
      </trkpt>
      <trkpt lat="49.12621" lon="0.7367">
        <ele>79.93</ele>
        <time>2021-03-20T09:29:23Z</time>
      </trkpt>
      <trkpt lat="49.12604" lon="0.73678">
        <ele>77.52</ele>
        <time>2021-03-20T09:29:27Z</time>
      </trkpt>
      <trkpt lat="49.1259" lon="0.73684">
        <ele>81.37</ele>
        <time>2021-03-20T09:29:31Z</time>
      </trkpt>
      <trkpt lat="49.12581" lon="0.73688">
        <ele>77.04</ele>
        <time>2021-03-20T09:29:34Z</time>
      </trkpt>
      <trkpt lat="49.12578" lon="0.7369">
        <ele>82.33</ele>
        <time>2021-03-20T09:29:35Z</time>
      </trkpt>
      <trkpt lat="49.12567" lon="0.73692">
        <ele>79.93</ele>
        <time>2021-03-20T09:29:38Z</time>
      </trkpt>
      <trkpt lat="49.12563" lon="0.73693">
        <ele>79.93</ele>
        <time>2021-03-20T09:29:39Z</time>
      </trkpt>
      <trkpt lat="49.12559" lon="0.73695">
        <ele>79.93</ele>
        <time>2021-03-20T09:29:40Z</time>
      </trkpt>
      <trkpt lat="49.12546" lon="0.73702">
        <ele>79.45</ele>
        <time>2021-03-20T09:29:43Z</time>
      </trkpt>
      <trkpt lat="49.1251" lon="0.73717">
        <ele>79.45</ele>
        <time>2021-03-20T09:29:53Z</time>
      </trkpt>
      <trkpt lat="49.12509" lon="0.7372">
        <ele>79.45</ele>
        <time>2021-03-20T09:29:54Z</time>
      </trkpt>
      <trkpt lat="49.12507" lon="0.73724">
        <ele>79.45</ele>
        <time>2021-03-20T09:29:55Z</time>
      </trkpt>
      <trkpt lat="49.12507" lon="0.73728">
        <ele>79.45</ele>
        <time>2021-03-20T09:29:56Z</time>
      </trkpt>
      <trkpt lat="49.12507" lon="0.73732">
        <ele>79.45</ele>
        <time>2021-03-20T09:29:57Z</time>
      </trkpt>
      <trkpt lat="49.12507" lon="0.73736">
        <ele>79.45</ele>
        <time>2021-03-20T09:29:58Z</time>
      </trkpt>
      <trkpt lat="49.12508" lon="0.73745">
        <ele>80.89</ele>
        <time>2021-03-20T09:30:00Z</time>
      </trkpt>
      <trkpt lat="49.12506" lon="0.73749">
        <ele>80.89</ele>
        <time>2021-03-20T09:30:01Z</time>
      </trkpt>
      <trkpt lat="49.12504" lon="0.73752">
        <ele>81.37</ele>
        <time>2021-03-20T09:30:02Z</time>
      </trkpt>
      <trkpt lat="49.12501" lon="0.73754">
        <ele>81.37</ele>
        <time>2021-03-20T09:30:03Z</time>
      </trkpt>
      <trkpt lat="49.12438" lon="0.73781">
        <ele>81.85</ele>
        <time>2021-03-20T09:30:21Z</time>
      </trkpt>
      <trkpt lat="49.12423" lon="0.73778">
        <ele>81.85</ele>
        <time>2021-03-20T09:30:25Z</time>
      </trkpt>
      <trkpt lat="49.1242" lon="0.73774">
        <ele>81.85</ele>
        <time>2021-03-20T09:30:26Z</time>
      </trkpt>
      <trkpt lat="49.12417" lon="0.73769">
        <ele>80.41</ele>
        <time>2021-03-20T09:30:27Z</time>
      </trkpt>
      <trkpt lat="49.12413" lon="0.73765">
        <ele>80.41</ele>
        <time>2021-03-20T09:30:28Z</time>
      </trkpt>
      <trkpt lat="49.12409" lon="0.73762">
        <ele>80.41</ele>
        <time>2021-03-20T09:30:29Z</time>
      </trkpt>
      <trkpt lat="49.12405" lon="0.73761">
        <ele>80.41</ele>
        <time>2021-03-20T09:30:30Z</time>
      </trkpt>
      <trkpt lat="49.12402" lon="0.73762">
        <ele>80.41</ele>
        <time>2021-03-20T09:30:31Z</time>
      </trkpt>
      <trkpt lat="49.12399" lon="0.73762">
        <ele>80.41</ele>
        <time>2021-03-20T09:30:32Z</time>
      </trkpt>
      <trkpt lat="49.12397" lon="0.73761">
        <ele>80.41</ele>
        <time>2021-03-20T09:30:33Z</time>
      </trkpt>
      <trkpt lat="49.12396" lon="0.73759">
        <ele>80.41</ele>
        <time>2021-03-20T09:30:34Z</time>
      </trkpt>
      <trkpt lat="49.12395" lon="0.73757">
        <ele>80.41</ele>
        <time>2021-03-20T09:30:35Z</time>
      </trkpt>
      <trkpt lat="49.12395" lon="0.73752">
        <ele>80.41</ele>
        <time>2021-03-20T09:30:36Z</time>
      </trkpt>
      <trkpt lat="49.12392" lon="0.73719">
        <ele>79.45</ele>
        <time>2021-03-20T09:30:42Z</time>
      </trkpt>
      <trkpt lat="49.1239" lon="0.73715">
        <ele>79.45</ele>
        <time>2021-03-20T09:30:43Z</time>
      </trkpt>
      <trkpt lat="49.12385" lon="0.73714">
        <ele>79.45</ele>
        <time>2021-03-20T09:30:44Z</time>
      </trkpt>
      <trkpt lat="49.12383" lon="0.73714">
        <ele>78.97</ele>
        <time>2021-03-20T09:30:45Z</time>
      </trkpt>
      <trkpt lat="49.12378" lon="0.73715">
        <ele>79.45</ele>
        <time>2021-03-20T09:30:46Z</time>
      </trkpt>
      <trkpt lat="49.12375" lon="0.73716">
        <ele>79.45</ele>
        <time>2021-03-20T09:30:47Z</time>
      </trkpt>
      <trkpt lat="49.12327" lon="0.73739">
        <ele>78.97</ele>
        <time>2021-03-20T09:31:01Z</time>
      </trkpt>
      <trkpt lat="49.12326" lon="0.73745">
        <ele>79.45</ele>
        <time>2021-03-20T09:31:02Z</time>
      </trkpt>
      <trkpt lat="49.12327" lon="0.7375">
        <ele>79.45</ele>
        <time>2021-03-20T09:31:03Z</time>
      </trkpt>
      <trkpt lat="49.12327" lon="0.73756">
        <ele>79.45</ele>
        <time>2021-03-20T09:31:04Z</time>
      </trkpt>
      <trkpt lat="49.12327" lon="0.7376">
        <ele>78.97</ele>
        <time>2021-03-20T09:31:05Z</time>
      </trkpt>
      <trkpt lat="49.1233" lon="0.73819">
        <ele>81.85</ele>
        <time>2021-03-20T09:31:23Z</time>
      </trkpt>
      <trkpt lat="49.12322" lon="0.73861">
        <ele>85.21</ele>
        <time>2021-03-20T09:31:43Z</time>
      </trkpt>
      <trkpt lat="49.12323" lon="0.73901">
        <ele>88.58</ele>
        <time>2021-03-20T09:32:01Z</time>
      </trkpt>
      <trkpt lat="49.12324" lon="0.73912">
        <ele>89.06</ele>
        <time>2021-03-20T09:32:06Z</time>
      </trkpt>
      <trkpt lat="49.12306" lon="0.73935">
        <ele>91.46</ele>
        <time>2021-03-20T09:32:22Z</time>
      </trkpt>
      <trkpt lat="49.12287" lon="0.73965">
        <ele>94.35</ele>
        <time>2021-03-20T09:32:40Z</time>
      </trkpt>
      <trkpt lat="49.12269" lon="0.73994">
        <ele>97.23</ele>
        <time>2021-03-20T09:32:58Z</time>
      </trkpt>
      <trkpt lat="49.12255" lon="0.74017">
        <ele>100.6</ele>
        <time>2021-03-20T09:33:13Z</time>
      </trkpt>
      <trkpt lat="49.12236" lon="0.74036">
        <ele>103.48</ele>
        <time>2021-03-20T09:33:29Z</time>
      </trkpt>
      <trkpt lat="49.12221" lon="0.74043">
        <ele>106.84</ele>
        <time>2021-03-20T09:33:42Z</time>
      </trkpt>
      <trkpt lat="49.12206" lon="0.74057">
        <ele>110.21</ele>
        <time>2021-03-20T09:33:57Z</time>
      </trkpt>
      <trkpt lat="49.122" lon="0.74077">
        <ele>112.61</ele>
        <time>2021-03-20T09:34:12Z</time>
      </trkpt>
      <trkpt lat="49.12203" lon="0.74086">
        <ele>113.09</ele>
        <time>2021-03-20T09:34:43Z</time>
      </trkpt>
      <trkpt lat="49.12205" lon="0.74108">
        <ele>115.98</ele>
        <time>2021-03-20T09:34:57Z</time>
      </trkpt>
      <trkpt lat="49.12211" lon="0.74127">
        <ele>119.34</ele>
        <time>2021-03-20T09:35:10Z</time>
      </trkpt>
      <trkpt lat="49.12218" lon="0.74147">
        <ele>122.22</ele>
        <time>2021-03-20T09:35:23Z</time>
      </trkpt>
      <trkpt lat="49.12222" lon="0.74159">
        <ele>124.15</ele>
        <time>2021-03-20T09:35:30Z</time>
      </trkpt>
      <trkpt lat="49.12224" lon="0.74164">
        <ele>124.63</ele>
        <time>2021-03-20T09:35:33Z</time>
      </trkpt>
      <trkpt lat="49.12224" lon="0.74166">
        <ele>124.63</ele>
        <time>2021-03-20T09:35:34Z</time>
      </trkpt>
      <trkpt lat="49.12224" lon="0.74168">
        <ele>124.63</ele>
        <time>2021-03-20T09:35:35Z</time>
      </trkpt>
      <trkpt lat="49.12225" lon="0.74169">
        <ele>125.11</ele>
        <time>2021-03-20T09:35:36Z</time>
      </trkpt>
      <trkpt lat="49.12226" lon="0.7417">
        <ele>125.11</ele>
        <time>2021-03-20T09:35:37Z</time>
      </trkpt>
      <trkpt lat="49.12227" lon="0.74171">
        <ele>125.11</ele>
        <time>2021-03-20T09:35:38Z</time>
      </trkpt>
      <trkpt lat="49.12228" lon="0.74173">
        <ele>125.11</ele>
        <time>2021-03-20T09:35:39Z</time>
      </trkpt>
      <trkpt lat="49.12227" lon="0.74175">
        <ele>125.11</ele>
        <time>2021-03-20T09:35:40Z</time>
      </trkpt>
      <trkpt lat="49.12227" lon="0.74177">
        <ele>125.11</ele>
        <time>2021-03-20T09:35:41Z</time>
      </trkpt>
      <trkpt lat="49.12227" lon="0.74179">
        <ele>126.07</ele>
        <time>2021-03-20T09:35:42Z</time>
      </trkpt>
      <trkpt lat="49.12229" lon="0.74184">
        <ele>126.55</ele>
        <time>2021-03-20T09:35:46Z</time>
      </trkpt>
      <trkpt lat="49.1223" lon="0.74186">
        <ele>127.03</ele>
        <time>2021-03-20T09:35:48Z</time>
      </trkpt>
      <trkpt lat="49.12231" lon="0.74188">
        <ele>127.03</ele>
        <time>2021-03-20T09:35:49Z</time>
      </trkpt>
      <trkpt lat="49.1223" lon="0.7419">
        <ele>127.03</ele>
        <time>2021-03-20T09:35:50Z</time>
      </trkpt>
      <trkpt lat="49.12229" lon="0.74196">
        <ele>127.51</ele>
        <time>2021-03-20T09:35:53Z</time>
      </trkpt>
      <trkpt lat="49.1223" lon="0.74198">
        <ele>127.51</ele>
        <time>2021-03-20T09:35:54Z</time>
      </trkpt>
      <trkpt lat="49.12232" lon="0.742">
        <ele>127.99</ele>
        <time>2021-03-20T09:35:56Z</time>
      </trkpt>
      <trkpt lat="49.12233" lon="0.74201">
        <ele>127.99</ele>
        <time>2021-03-20T09:35:57Z</time>
      </trkpt>
      <trkpt lat="49.12234" lon="0.74202">
        <ele>128.47</ele>
        <time>2021-03-20T09:35:58Z</time>
      </trkpt>
      <trkpt lat="49.12234" lon="0.74204">
        <ele>128.47</ele>
        <time>2021-03-20T09:35:59Z</time>
      </trkpt>
      <trkpt lat="49.12234" lon="0.74206">
        <ele>128.47</ele>
        <time>2021-03-20T09:36:00Z</time>
      </trkpt>
      <trkpt lat="49.12234" lon="0.74207">
        <ele>128.95</ele>
        <time>2021-03-20T09:36:01Z</time>
      </trkpt>
      <trkpt lat="49.12234" lon="0.74211">
        <ele>128.95</ele>
        <time>2021-03-20T09:36:03Z</time>
      </trkpt>
      <trkpt lat="49.12239" lon="0.74228">
        <ele>130.88</ele>
        <time>2021-03-20T09:36:15Z</time>
      </trkpt>
      <trkpt lat="49.12238" lon="0.7423">
        <ele>131.36</ele>
        <time>2021-03-20T09:36:16Z</time>
      </trkpt>
      <trkpt lat="49.12239" lon="0.74231">
        <ele>131.36</ele>
        <time>2021-03-20T09:36:17Z</time>
      </trkpt>
      <trkpt lat="49.12239" lon="0.74233">
        <ele>131.84</ele>
        <time>2021-03-20T09:36:18Z</time>
      </trkpt>
      <trkpt lat="49.1224" lon="0.74234">
        <ele>131.84</ele>
        <time>2021-03-20T09:36:19Z</time>
      </trkpt>
      <trkpt lat="49.12241" lon="0.74235">
        <ele>131.84</ele>
        <time>2021-03-20T09:36:20Z</time>
      </trkpt>
      <trkpt lat="49.12242" lon="0.74236">
        <ele>132.32</ele>
        <time>2021-03-20T09:36:21Z</time>
      </trkpt>
      <trkpt lat="49.12243" lon="0.74236">
        <ele>132.32</ele>
        <time>2021-03-20T09:36:22Z</time>
      </trkpt>
      <trkpt lat="49.12243" lon="0.7424">
        <ele>132.8</ele>
        <time>2021-03-20T09:36:24Z</time>
      </trkpt>
      <trkpt lat="49.12243" lon="0.74241">
        <ele>132.8</ele>
        <time>2021-03-20T09:36:25Z</time>
      </trkpt>
      <trkpt lat="49.12242" lon="0.74243">
        <ele>132.8</ele>
        <time>2021-03-20T09:36:26Z</time>
      </trkpt>
      <trkpt lat="49.12242" lon="0.74245">
        <ele>133.28</ele>
        <time>2021-03-20T09:36:27Z</time>
      </trkpt>
      <trkpt lat="49.12243" lon="0.74247">
        <ele>133.28</ele>
        <time>2021-03-20T09:36:28Z</time>
      </trkpt>
      <trkpt lat="49.12243" lon="0.74249">
        <ele>133.28</ele>
        <time>2021-03-20T09:36:29Z</time>
      </trkpt>
      <trkpt lat="49.12244" lon="0.7425">
        <ele>133.76</ele>
        <time>2021-03-20T09:36:30Z</time>
      </trkpt>
      <trkpt lat="49.12245" lon="0.74251">
        <ele>133.76</ele>
        <time>2021-03-20T09:36:31Z</time>
      </trkpt>
      <trkpt lat="49.12246" lon="0.74252">
        <ele>133.76</ele>
        <time>2021-03-20T09:36:32Z</time>
      </trkpt>
      <trkpt lat="49.12247" lon="0.74253">
        <ele>134.24</ele>
        <time>2021-03-20T09:36:33Z</time>
      </trkpt>
      <trkpt lat="49.12246" lon="0.74257">
        <ele>134.72</ele>
        <time>2021-03-20T09:36:36Z</time>
      </trkpt>
      <trkpt lat="49.12246" lon="0.74259">
        <ele>134.72</ele>
        <time>2021-03-20T09:36:37Z</time>
      </trkpt>
      <trkpt lat="49.12246" lon="0.7426">
        <ele>134.72</ele>
        <time>2021-03-20T09:36:38Z</time>
      </trkpt>
      <trkpt lat="49.12246" lon="0.74262">
        <ele>135.2</ele>
        <time>2021-03-20T09:36:39Z</time>
      </trkpt>
      <trkpt lat="49.1225" lon="0.74274">
        <ele>137.13</ele>
        <time>2021-03-20T09:36:48Z</time>
      </trkpt>
      <trkpt lat="49.12249" lon="0.74276">
        <ele>137.13</ele>
        <time>2021-03-20T09:36:49Z</time>
      </trkpt>
      <trkpt lat="49.12249" lon="0.74278">
        <ele>137.13</ele>
        <time>2021-03-20T09:36:50Z</time>
      </trkpt>
      <trkpt lat="49.1225" lon="0.7428">
        <ele>137.13</ele>
        <time>2021-03-20T09:36:51Z</time>
      </trkpt>
      <trkpt lat="49.12252" lon="0.74294">
        <ele>138.57</ele>
        <time>2021-03-20T09:37:01Z</time>
      </trkpt>
      <trkpt lat="49.12252" lon="0.74296">
        <ele>139.53</ele>
        <time>2021-03-20T09:37:02Z</time>
      </trkpt>
      <trkpt lat="49.12255" lon="0.74303">
        <ele>140.49</ele>
        <time>2021-03-20T09:37:07Z</time>
      </trkpt>
      <trkpt lat="49.12256" lon="0.7431">
        <ele>140.97</ele>
        <time>2021-03-20T09:37:11Z</time>
      </trkpt>
      <trkpt lat="49.12255" lon="0.74311">
        <ele>140.97</ele>
        <time>2021-03-20T09:37:12Z</time>
      </trkpt>
      <trkpt lat="49.12256" lon="0.74316">
        <ele>141.45</ele>
        <time>2021-03-20T09:37:15Z</time>
      </trkpt>
      <trkpt lat="49.12261" lon="0.74325">
        <ele>142.41</ele>
        <time>2021-03-20T09:37:21Z</time>
      </trkpt>
      <trkpt lat="49.12261" lon="0.74327">
        <ele>142.89</ele>
        <time>2021-03-20T09:37:22Z</time>
      </trkpt>
      <trkpt lat="49.12262" lon="0.7433">
        <ele>142.89</ele>
        <time>2021-03-20T09:37:23Z</time>
      </trkpt>
      <trkpt lat="49.12262" lon="0.74332">
        <ele>142.89</ele>
        <time>2021-03-20T09:37:24Z</time>
      </trkpt>
      <trkpt lat="49.12262" lon="0.74334">
        <ele>142.89</ele>
        <time>2021-03-20T09:37:25Z</time>
      </trkpt>
      <trkpt lat="49.12262" lon="0.74336">
        <ele>142.89</ele>
        <time>2021-03-20T09:37:26Z</time>
      </trkpt>
      <trkpt lat="49.12264" lon="0.74344">
        <ele>143.85</ele>
        <time>2021-03-20T09:37:30Z</time>
      </trkpt>
      <trkpt lat="49.12266" lon="0.74345">
        <ele>143.85</ele>
        <time>2021-03-20T09:37:31Z</time>
      </trkpt>
      <trkpt lat="49.12267" lon="0.74346">
        <ele>143.85</ele>
        <time>2021-03-20T09:37:32Z</time>
      </trkpt>
      <trkpt lat="49.12268" lon="0.74348">
        <ele>144.34</ele>
        <time>2021-03-20T09:37:33Z</time>
      </trkpt>
      <trkpt lat="49.12269" lon="0.74349">
        <ele>144.34</ele>
        <time>2021-03-20T09:37:34Z</time>
      </trkpt>
      <trkpt lat="49.12269" lon="0.74351">
        <ele>144.34</ele>
        <time>2021-03-20T09:37:35Z</time>
      </trkpt>
      <trkpt lat="49.12269" lon="0.74353">
        <ele>144.82</ele>
        <time>2021-03-20T09:37:36Z</time>
      </trkpt>
      <trkpt lat="49.12269" lon="0.74355">
        <ele>144.82</ele>
        <time>2021-03-20T09:37:37Z</time>
      </trkpt>
      <trkpt lat="49.12269" lon="0.74357">
        <ele>144.82</ele>
        <time>2021-03-20T09:37:38Z</time>
      </trkpt>
      <trkpt lat="49.12269" lon="0.74359">
        <ele>145.3</ele>
        <time>2021-03-20T09:37:39Z</time>
      </trkpt>
      <trkpt lat="49.1227" lon="0.7436">
        <ele>145.3</ele>
        <time>2021-03-20T09:37:40Z</time>
      </trkpt>
      <trkpt lat="49.12271" lon="0.74361">
        <ele>145.78</ele>
        <time>2021-03-20T09:37:41Z</time>
      </trkpt>
      <trkpt lat="49.12273" lon="0.74362">
        <ele>145.78</ele>
        <time>2021-03-20T09:37:42Z</time>
      </trkpt>
      <trkpt lat="49.12274" lon="0.74364">
        <ele>145.78</ele>
        <time>2021-03-20T09:37:43Z</time>
      </trkpt>
      <trkpt lat="49.12274" lon="0.74365">
        <ele>146.26</ele>
        <time>2021-03-20T09:37:44Z</time>
      </trkpt>
      <trkpt lat="49.12274" lon="0.74367">
        <ele>146.26</ele>
        <time>2021-03-20T09:37:45Z</time>
      </trkpt>
      <trkpt lat="49.12274" lon="0.74369">
        <ele>146.74</ele>
        <time>2021-03-20T09:37:46Z</time>
      </trkpt>
      <trkpt lat="49.12274" lon="0.74371">
        <ele>146.74</ele>
        <time>2021-03-20T09:37:47Z</time>
      </trkpt>
      <trkpt lat="49.12274" lon="0.74373">
        <ele>147.22</ele>
        <time>2021-03-20T09:37:48Z</time>
      </trkpt>
      <trkpt lat="49.12287" lon="0.74396">
        <ele>149.62</ele>
        <time>2021-03-20T09:38:03Z</time>
      </trkpt>
      <trkpt lat="49.12298" lon="0.7443">
        <ele>152.03</ele>
        <time>2021-03-20T09:38:18Z</time>
      </trkpt>
      <trkpt lat="49.12309" lon="0.74465">
        <ele>152.99</ele>
        <time>2021-03-20T09:38:32Z</time>
      </trkpt>
      <trkpt lat="49.1233" lon="0.74533">
        <ele>152.99</ele>
        <time>2021-03-20T09:38:47Z</time>
      </trkpt>
      <trkpt lat="49.12352" lon="0.74608">
        <ele>154.43</ele>
        <time>2021-03-20T09:39:04Z</time>
      </trkpt>
      <trkpt lat="49.12382" lon="0.74707">
        <ele>152.51</ele>
        <time>2021-03-20T09:39:21Z</time>
      </trkpt>
      <trkpt lat="49.12386" lon="0.74725">
        <ele>152.03</ele>
        <time>2021-03-20T09:39:24Z</time>
      </trkpt>
      <trkpt lat="49.12389" lon="0.74747">
        <ele>151.54</ele>
        <time>2021-03-20T09:39:33Z</time>
      </trkpt>
      <trkpt lat="49.12389" lon="0.74748">
        <ele>151.54</ele>
        <time>2021-03-20T09:39:45Z</time>
      </trkpt>
      <trkpt lat="49.12389" lon="0.7475">
        <ele>151.54</ele>
        <time>2021-03-20T09:39:46Z</time>
      </trkpt>
      <trkpt lat="49.12388" lon="0.74753">
        <ele>151.54</ele>
        <time>2021-03-20T09:39:47Z</time>
      </trkpt>
      <trkpt lat="49.12386" lon="0.74758">
        <ele>151.06</ele>
        <time>2021-03-20T09:39:48Z</time>
      </trkpt>
      <trkpt lat="49.12384" lon="0.74761">
        <ele>151.54</ele>
        <time>2021-03-20T09:39:49Z</time>
      </trkpt>
      <trkpt lat="49.12381" lon="0.74765">
        <ele>151.54</ele>
        <time>2021-03-20T09:39:50Z</time>
      </trkpt>
      <trkpt lat="49.12345" lon="0.74821">
        <ele>149.14</ele>
        <time>2021-03-20T09:40:00Z</time>
      </trkpt>
      <trkpt lat="49.12318" lon="0.7486">
        <ele>147.22</ele>
        <time>2021-03-20T09:40:06Z</time>
      </trkpt>
      <trkpt lat="49.12312" lon="0.74867">
        <ele>147.22</ele>
        <time>2021-03-20T09:40:07Z</time>
      </trkpt>
      <trkpt lat="49.12276" lon="0.7492">
        <ele>143.85</ele>
        <time>2021-03-20T09:40:14Z</time>
      </trkpt>
      <trkpt lat="49.12223" lon="0.74991">
        <ele>140.01</ele>
        <time>2021-03-20T09:40:23Z</time>
      </trkpt>
      <trkpt lat="49.12174" lon="0.75045">
        <ele>139.53</ele>
        <time>2021-03-20T09:40:33Z</time>
      </trkpt>
      <trkpt lat="49.12167" lon="0.75052">
        <ele>139.05</ele>
        <time>2021-03-20T09:40:42Z</time>
      </trkpt>
      <trkpt lat="49.12165" lon="0.75053">
        <ele>139.05</ele>
        <time>2021-03-20T09:40:47Z</time>
      </trkpt>
      <trkpt lat="49.12163" lon="0.75054">
        <ele>139.05</ele>
        <time>2021-03-20T09:40:48Z</time>
      </trkpt>
      <trkpt lat="49.12161" lon="0.75055">
        <ele>139.05</ele>
        <time>2021-03-20T09:40:49Z</time>
      </trkpt>
      <trkpt lat="49.12158" lon="0.75058">
        <ele>139.05</ele>
        <time>2021-03-20T09:40:50Z</time>
      </trkpt>
      <trkpt lat="49.12156" lon="0.75061">
        <ele>139.05</ele>
        <time>2021-03-20T09:40:51Z</time>
      </trkpt>
      <trkpt lat="49.12154" lon="0.75065">
        <ele>139.05</ele>
        <time>2021-03-20T09:40:52Z</time>
      </trkpt>
      <trkpt lat="49.12108" lon="0.75102">
        <ele>139.05</ele>
        <time>2021-03-20T09:41:08Z</time>
      </trkpt>
      <trkpt lat="49.12087" lon="0.75113">
        <ele>140.01</ele>
        <time>2021-03-20T09:41:15Z</time>
      </trkpt>
      <trkpt lat="49.12055" lon="0.75129">
        <ele>142.41</ele>
        <time>2021-03-20T09:41:28Z</time>
      </trkpt>
      <trkpt lat="49.12011" lon="0.75152">
        <ele>145.3</ele>
        <time>2021-03-20T09:41:46Z</time>
      </trkpt>
      <trkpt lat="49.11973" lon="0.75179">
        <ele>147.22</ele>
        <time>2021-03-20T09:42:03Z</time>
      </trkpt>
      <trkpt lat="49.11927" lon="0.75204">
        <ele>147.7</ele>
        <time>2021-03-20T09:42:18Z</time>
      </trkpt>
      <trkpt lat="49.11872" lon="0.7523">
        <ele>148.18</ele>
        <time>2021-03-20T09:42:32Z</time>
      </trkpt>
      <trkpt lat="49.11823" lon="0.75254">
        <ele>148.18</ele>
        <time>2021-03-20T09:42:43Z</time>
      </trkpt>
      <trkpt lat="49.11819" lon="0.75256">
        <ele>148.18</ele>
        <time>2021-03-20T09:42:44Z</time>
      </trkpt>
      <trkpt lat="49.11814" lon="0.75259">
        <ele>148.18</ele>
        <time>2021-03-20T09:42:45Z</time>
      </trkpt>
      <trkpt lat="49.11749" lon="0.75293">
        <ele>148.66</ele>
        <time>2021-03-20T09:43:00Z</time>
      </trkpt>
      <trkpt lat="49.11745" lon="0.75295">
        <ele>148.66</ele>
        <time>2021-03-20T09:43:01Z</time>
      </trkpt>
      <trkpt lat="49.11741" lon="0.75297">
        <ele>148.66</ele>
        <time>2021-03-20T09:43:02Z</time>
      </trkpt>
      <trkpt lat="49.11736" lon="0.75299">
        <ele>148.66</ele>
        <time>2021-03-20T09:43:03Z</time>
      </trkpt>
      <trkpt lat="49.11732" lon="0.75301">
        <ele>148.66</ele>
        <time>2021-03-20T09:43:04Z</time>
      </trkpt>
      <trkpt lat="49.11728" lon="0.75304">
        <ele>148.66</ele>
        <time>2021-03-20T09:43:05Z</time>
      </trkpt>
      <trkpt lat="49.11723" lon="0.75306">
        <ele>148.66</ele>
        <time>2021-03-20T09:43:06Z</time>
      </trkpt>
      <trkpt lat="49.11718" lon="0.75308">
        <ele>149.14</ele>
        <time>2021-03-20T09:43:07Z</time>
      </trkpt>
      <trkpt lat="49.1168" lon="0.75323">
        <ele>149.14</ele>
        <time>2021-03-20T09:43:15Z</time>
      </trkpt>
      <trkpt lat="49.11675" lon="0.75323">
        <ele>149.62</ele>
        <time>2021-03-20T09:43:16Z</time>
      </trkpt>
      <trkpt lat="49.11671" lon="0.75324">
        <ele>149.62</ele>
        <time>2021-03-20T09:43:17Z</time>
      </trkpt>
      <trkpt lat="49.11666" lon="0.75326">
        <ele>149.62</ele>
        <time>2021-03-20T09:43:18Z</time>
      </trkpt>
      <trkpt lat="49.11662" lon="0.75329">
        <ele>149.62</ele>
        <time>2021-03-20T09:43:19Z</time>
      </trkpt>
      <trkpt lat="49.11657" lon="0.75332">
        <ele>149.62</ele>
        <time>2021-03-20T09:43:20Z</time>
      </trkpt>
      <trkpt lat="49.11652" lon="0.75334">
        <ele>149.62</ele>
        <time>2021-03-20T09:43:21Z</time>
      </trkpt>
      <trkpt lat="49.11592" lon="0.75357">
        <ele>149.62</ele>
        <time>2021-03-20T09:43:33Z</time>
      </trkpt>
      <trkpt lat="49.11539" lon="0.75375">
        <ele>148.18</ele>
        <time>2021-03-20T09:43:43Z</time>
      </trkpt>
      <trkpt lat="49.11514" lon="0.75386">
        <ele>146.74</ele>
        <time>2021-03-20T09:43:47Z</time>
      </trkpt>
      <trkpt lat="49.11489" lon="0.75391">
        <ele>146.26</ele>
        <time>2021-03-20T09:43:51Z</time>
      </trkpt>
      <trkpt lat="49.11483" lon="0.75392">
        <ele>146.26</ele>
        <time>2021-03-20T09:43:52Z</time>
      </trkpt>
      <trkpt lat="49.1143" lon="0.75392">
        <ele>146.26</ele>
        <time>2021-03-20T09:44:01Z</time>
      </trkpt>
      <trkpt lat="49.11395" lon="0.75383">
        <ele>147.7</ele>
        <time>2021-03-20T09:44:12Z</time>
      </trkpt>
      <trkpt lat="49.11354" lon="0.75375">
        <ele>149.14</ele>
        <time>2021-03-20T09:44:26Z</time>
      </trkpt>
      <trkpt lat="49.11316" lon="0.75371">
        <ele>150.1</ele>
        <time>2021-03-20T09:44:39Z</time>
      </trkpt>
      <trkpt lat="49.11269" lon="0.75366">
        <ele>151.54</ele>
        <time>2021-03-20T09:44:53Z</time>
      </trkpt>
      <trkpt lat="49.11224" lon="0.75369">
        <ele>152.51</ele>
        <time>2021-03-20T09:45:06Z</time>
      </trkpt>
      <trkpt lat="49.11192" lon="0.75379">
        <ele>152.99</ele>
        <time>2021-03-20T09:45:16Z</time>
      </trkpt>
      <trkpt lat="49.11196" lon="0.75444">
        <ele>153.47</ele>
        <time>2021-03-20T09:45:30Z</time>
      </trkpt>
      <trkpt lat="49.11202" lon="0.755">
        <ele>152.03</ele>
        <time>2021-03-20T09:45:41Z</time>
      </trkpt>
      <trkpt lat="49.11202" lon="0.75506">
        <ele>152.03</ele>
        <time>2021-03-20T09:45:42Z</time>
      </trkpt>
      <trkpt lat="49.11208" lon="0.7558">
        <ele>151.06</ele>
        <time>2021-03-20T09:45:55Z</time>
      </trkpt>
      <trkpt lat="49.11214" lon="0.75651">
        <ele>150.58</ele>
        <time>2021-03-20T09:46:08Z</time>
      </trkpt>
      <trkpt lat="49.11222" lon="0.75724">
        <ele>150.1</ele>
        <time>2021-03-20T09:46:23Z</time>
      </trkpt>
      <trkpt lat="49.11237" lon="0.75797">
        <ele>150.1</ele>
        <time>2021-03-20T09:46:41Z</time>
      </trkpt>
      <trkpt lat="49.11249" lon="0.75869">
        <ele>150.1</ele>
        <time>2021-03-20T09:47:00Z</time>
      </trkpt>
      <trkpt lat="49.11252" lon="0.75888">
        <ele>151.06</ele>
        <time>2021-03-20T09:47:05Z</time>
      </trkpt>
      <trkpt lat="49.11251" lon="0.75892">
        <ele>151.06</ele>
        <time>2021-03-20T09:47:06Z</time>
      </trkpt>
      <trkpt lat="49.11249" lon="0.75893">
        <ele>151.54</ele>
        <time>2021-03-20T09:47:07Z</time>
      </trkpt>
      <trkpt lat="49.11248" lon="0.75894">
        <ele>151.54</ele>
        <time>2021-03-20T09:47:08Z</time>
      </trkpt>
      <trkpt lat="49.11245" lon="0.75894">
        <ele>152.03</ele>
        <time>2021-03-20T09:47:09Z</time>
      </trkpt>
      <trkpt lat="49.11243" lon="0.75893">
        <ele>152.51</ele>
        <time>2021-03-20T09:47:10Z</time>
      </trkpt>
      <trkpt lat="49.11186" lon="0.75876">
        <ele>152.51</ele>
        <time>2021-03-20T09:47:26Z</time>
      </trkpt>
      <trkpt lat="49.11081" lon="0.75845">
        <ele>152.99</ele>
        <time>2021-03-20T09:47:47Z</time>
      </trkpt>
      <trkpt lat="49.10994" lon="0.7581">
        <ele>153.95</ele>
        <time>2021-03-20T09:48:04Z</time>
      </trkpt>
      <trkpt lat="49.10972" lon="0.75799">
        <ele>153.95</ele>
        <time>2021-03-20T09:48:08Z</time>
      </trkpt>
      <trkpt lat="49.10966" lon="0.75798">
        <ele>153.95</ele>
        <time>2021-03-20T09:48:09Z</time>
      </trkpt>
      <trkpt lat="49.10961" lon="0.758">
        <ele>153.95</ele>
        <time>2021-03-20T09:48:10Z</time>
      </trkpt>
      <trkpt lat="49.10955" lon="0.75803">
        <ele>153.95</ele>
        <time>2021-03-20T09:48:11Z</time>
      </trkpt>
      <trkpt lat="49.1095" lon="0.75806">
        <ele>153.95</ele>
        <time>2021-03-20T09:48:12Z</time>
      </trkpt>
      <trkpt lat="49.10941" lon="0.75814">
        <ele>153.95</ele>
        <time>2021-03-20T09:48:14Z</time>
      </trkpt>
      <trkpt lat="49.10862" lon="0.75907">
        <ele>154.43</ele>
        <time>2021-03-20T09:48:31Z</time>
      </trkpt>
      <trkpt lat="49.10792" lon="0.76002">
        <ele>155.87</ele>
        <time>2021-03-20T09:48:48Z</time>
      </trkpt>
      <trkpt lat="49.10724" lon="0.76101">
        <ele>155.39</ele>
        <time>2021-03-20T09:49:05Z</time>
      </trkpt>
      <trkpt lat="49.10651" lon="0.76169">
        <ele>155.39</ele>
        <time>2021-03-20T09:49:21Z</time>
      </trkpt>
      <trkpt lat="49.10596" lon="0.76221">
        <ele>155.39</ele>
        <time>2021-03-20T09:49:34Z</time>
      </trkpt>
      <trkpt lat="49.10592" lon="0.76221">
        <ele>155.39</ele>
        <time>2021-03-20T09:49:35Z</time>
      </trkpt>
      <trkpt lat="49.10584" lon="0.76212">
        <ele>155.39</ele>
        <time>2021-03-20T09:49:37Z</time>
      </trkpt>
      <trkpt lat="49.10532" lon="0.76098">
        <ele>153.95</ele>
        <time>2021-03-20T09:49:54Z</time>
      </trkpt>
      <trkpt lat="49.10509" lon="0.76026">
        <ele>153.47</ele>
        <time>2021-03-20T09:50:07Z</time>
      </trkpt>
      <trkpt lat="49.10479" lon="0.75991">
        <ele>153.47</ele>
        <time>2021-03-20T09:50:18Z</time>
      </trkpt>
      <trkpt lat="49.10447" lon="0.7593">
        <ele>153.47</ele>
        <time>2021-03-20T09:50:35Z</time>
      </trkpt>
      <trkpt lat="49.10444" lon="0.7593">
        <ele>153.47</ele>
        <time>2021-03-20T09:50:36Z</time>
      </trkpt>
      <trkpt lat="49.10441" lon="0.7593">
        <ele>153.47</ele>
        <time>2021-03-20T09:50:37Z</time>
      </trkpt>
      <trkpt lat="49.10437" lon="0.75932">
        <ele>153.47</ele>
        <time>2021-03-20T09:50:38Z</time>
      </trkpt>
      <trkpt lat="49.10434" lon="0.75934">
        <ele>153.47</ele>
        <time>2021-03-20T09:50:39Z</time>
      </trkpt>
      <trkpt lat="49.10431" lon="0.75937">
        <ele>153.47</ele>
        <time>2021-03-20T09:50:40Z</time>
      </trkpt>
      <trkpt lat="49.10428" lon="0.75939">
        <ele>153.47</ele>
        <time>2021-03-20T09:50:41Z</time>
      </trkpt>
      <trkpt lat="49.10425" lon="0.75942">
        <ele>153.47</ele>
        <time>2021-03-20T09:50:42Z</time>
      </trkpt>
      <trkpt lat="49.10406" lon="0.75961">
        <ele>153.47</ele>
        <time>2021-03-20T09:50:48Z</time>
      </trkpt>
      <trkpt lat="49.10402" lon="0.75965">
        <ele>153.47</ele>
        <time>2021-03-20T09:50:49Z</time>
      </trkpt>
      <trkpt lat="49.10343" lon="0.76018">
        <ele>152.99</ele>
        <time>2021-03-20T09:51:05Z</time>
      </trkpt>
      <trkpt lat="49.10321" lon="0.76039">
        <ele>152.51</ele>
        <time>2021-03-20T09:51:11Z</time>
      </trkpt>
      <trkpt lat="49.10317" lon="0.76041">
        <ele>152.51</ele>
        <time>2021-03-20T09:51:12Z</time>
      </trkpt>
      <trkpt lat="49.10313" lon="0.76042">
        <ele>152.51</ele>
        <time>2021-03-20T09:51:13Z</time>
      </trkpt>
      <trkpt lat="49.10308" lon="0.76042">
        <ele>152.51</ele>
        <time>2021-03-20T09:51:14Z</time>
      </trkpt>
      <trkpt lat="49.10304" lon="0.76041">
        <ele>152.51</ele>
        <time>2021-03-20T09:51:15Z</time>
      </trkpt>
      <trkpt lat="49.103" lon="0.7604">
        <ele>152.51</ele>
        <time>2021-03-20T09:51:16Z</time>
      </trkpt>
      <trkpt lat="49.10296" lon="0.76039">
        <ele>152.51</ele>
        <time>2021-03-20T09:51:17Z</time>
      </trkpt>
      <trkpt lat="49.10292" lon="0.76038">
        <ele>152.51</ele>
        <time>2021-03-20T09:51:18Z</time>
      </trkpt>
      <trkpt lat="49.10255" lon="0.76022">
        <ele>152.51</ele>
        <time>2021-03-20T09:51:28Z</time>
      </trkpt>
      <trkpt lat="49.10232" lon="0.7601">
        <ele>152.03</ele>
        <time>2021-03-20T09:51:34Z</time>
      </trkpt>
      <trkpt lat="49.10223" lon="0.76006">
        <ele>151.54</ele>
        <time>2021-03-20T09:51:36Z</time>
      </trkpt>
      <trkpt lat="49.102" lon="0.76001">
        <ele>151.54</ele>
        <time>2021-03-20T09:51:41Z</time>
      </trkpt>
      <trkpt lat="49.10191" lon="0.75999">
        <ele>151.54</ele>
        <time>2021-03-20T09:51:43Z</time>
      </trkpt>
      <trkpt lat="49.1017" lon="0.75991">
        <ele>151.06</ele>
        <time>2021-03-20T09:51:48Z</time>
      </trkpt>
      <trkpt lat="49.10157" lon="0.75988">
        <ele>150.1</ele>
        <time>2021-03-20T09:51:51Z</time>
      </trkpt>
      <trkpt lat="49.10143" lon="0.75987">
        <ele>150.1</ele>
        <time>2021-03-20T09:51:54Z</time>
      </trkpt>
      <trkpt lat="49.10123" lon="0.75993">
        <ele>149.62</ele>
        <time>2021-03-20T09:51:58Z</time>
      </trkpt>
      <trkpt lat="49.10078" lon="0.76012">
        <ele>149.62</ele>
        <time>2021-03-20T09:52:10Z</time>
      </trkpt>
      <trkpt lat="49.10068" lon="0.7601">
        <ele>149.14</ele>
        <time>2021-03-20T09:52:13Z</time>
      </trkpt>
      <trkpt lat="49.10048" lon="0.75987">
        <ele>148.66</ele>
        <time>2021-03-20T09:52:19Z</time>
      </trkpt>
      <trkpt lat="49.10032" lon="0.75964">
        <ele>148.18</ele>
        <time>2021-03-20T09:52:24Z</time>
      </trkpt>
      <trkpt lat="49.10028" lon="0.75962">
        <ele>148.18</ele>
        <time>2021-03-20T09:52:25Z</time>
      </trkpt>
      <trkpt lat="49.10024" lon="0.75963">
        <ele>148.18</ele>
        <time>2021-03-20T09:52:26Z</time>
      </trkpt>
      <trkpt lat="49.10021" lon="0.75965">
        <ele>147.7</ele>
        <time>2021-03-20T09:52:27Z</time>
      </trkpt>
      <trkpt lat="49.1002" lon="0.75968">
        <ele>147.7</ele>
        <time>2021-03-20T09:52:28Z</time>
      </trkpt>
      <trkpt lat="49.10018" lon="0.75971">
        <ele>147.7</ele>
        <time>2021-03-20T09:52:29Z</time>
      </trkpt>
      <trkpt lat="49.10018" lon="0.75975">
        <ele>148.18</ele>
        <time>2021-03-20T09:52:30Z</time>
      </trkpt>
      <trkpt lat="49.10007" lon="0.76037">
        <ele>147.7</ele>
        <time>2021-03-20T09:52:43Z</time>
      </trkpt>
      <trkpt lat="49.10003" lon="0.76071">
        <ele>148.66</ele>
        <time>2021-03-20T09:52:50Z</time>
      </trkpt>
      <trkpt lat="49.09996" lon="0.76122">
        <ele>150.1</ele>
        <time>2021-03-20T09:53:02Z</time>
      </trkpt>
      <trkpt lat="49.09989" lon="0.7617">
        <ele>151.54</ele>
        <time>2021-03-20T09:53:15Z</time>
      </trkpt>
      <trkpt lat="49.09983" lon="0.76234">
        <ele>153.47</ele>
        <time>2021-03-20T09:53:30Z</time>
      </trkpt>
      <trkpt lat="49.09981" lon="0.76286">
        <ele>154.43</ele>
        <time>2021-03-20T09:53:43Z</time>
      </trkpt>
      <trkpt lat="49.0996" lon="0.76346">
        <ele>155.39</ele>
        <time>2021-03-20T09:53:59Z</time>
      </trkpt>
      <trkpt lat="49.09916" lon="0.76399">
        <ele>155.39</ele>
        <time>2021-03-20T09:54:13Z</time>
      </trkpt>
      <trkpt lat="49.09878" lon="0.76445">
        <ele>155.39</ele>
        <time>2021-03-20T09:54:26Z</time>
      </trkpt>
      <trkpt lat="49.09842" lon="0.76487">
        <ele>155.39</ele>
        <time>2021-03-20T09:54:38Z</time>
      </trkpt>
      <trkpt lat="49.09803" lon="0.76532">
        <ele>155.39</ele>
        <time>2021-03-20T09:54:51Z</time>
      </trkpt>
      <trkpt lat="49.09782" lon="0.76556">
        <ele>155.39</ele>
        <time>2021-03-20T09:55:00Z</time>
      </trkpt>
      <trkpt lat="49.09745" lon="0.76599">
        <ele>155.39</ele>
        <time>2021-03-20T09:55:14Z</time>
      </trkpt>
      <trkpt lat="49.09708" lon="0.76637">
        <ele>155.39</ele>
        <time>2021-03-20T09:55:27Z</time>
      </trkpt>
      <trkpt lat="49.09672" lon="0.76666">
        <ele>156.35</ele>
        <time>2021-03-20T09:55:39Z</time>
      </trkpt>
      <trkpt lat="49.09645" lon="0.76687">
        <ele>157.31</ele>
        <time>2021-03-20T09:55:51Z</time>
      </trkpt>
      <trkpt lat="49.09615" lon="0.76715">
        <ele>157.79</ele>
        <time>2021-03-20T09:56:03Z</time>
      </trkpt>
      <trkpt lat="49.09572" lon="0.76745">
        <ele>157.79</ele>
        <time>2021-03-20T09:56:16Z</time>
      </trkpt>
      <trkpt lat="49.09542" lon="0.76765">
        <ele>156.35</ele>
        <time>2021-03-20T09:56:25Z</time>
      </trkpt>
      <trkpt lat="49.09473" lon="0.76813">
        <ele>153.95</ele>
        <time>2021-03-20T09:56:41Z</time>
      </trkpt>
      <trkpt lat="49.09418" lon="0.76871">
        <ele>152.03</ele>
        <time>2021-03-20T09:56:53Z</time>
      </trkpt>
      <trkpt lat="49.0938" lon="0.76943">
        <ele>148.18</ele>
        <time>2021-03-20T09:57:04Z</time>
      </trkpt>
      <trkpt lat="49.09374" lon="0.76953">
        <ele>147.7</ele>
        <time>2021-03-20T09:57:06Z</time>
      </trkpt>
      <trkpt lat="49.0937" lon="0.76955">
        <ele>147.7</ele>
        <time>2021-03-20T09:57:07Z</time>
      </trkpt>
      <trkpt lat="49.09365" lon="0.76955">
        <ele>146.74</ele>
        <time>2021-03-20T09:57:08Z</time>
      </trkpt>
      <trkpt lat="49.09363" lon="0.76954">
        <ele>146.74</ele>
        <time>2021-03-20T09:57:09Z</time>
      </trkpt>
      <trkpt lat="49.09361" lon="0.76952">
        <ele>146.74</ele>
        <time>2021-03-20T09:57:10Z</time>
      </trkpt>
      <trkpt lat="49.0936" lon="0.7695">
        <ele>146.74</ele>
        <time>2021-03-20T09:57:11Z</time>
      </trkpt>
      <trkpt lat="49.09358" lon="0.76948">
        <ele>146.74</ele>
        <time>2021-03-20T09:57:12Z</time>
      </trkpt>
      <trkpt lat="49.09357" lon="0.76945">
        <ele>148.18</ele>
        <time>2021-03-20T09:57:13Z</time>
      </trkpt>
      <trkpt lat="49.09356" lon="0.76943">
        <ele>148.18</ele>
        <time>2021-03-20T09:57:14Z</time>
      </trkpt>
      <trkpt lat="49.09334" lon="0.76903">
        <ele>150.1</ele>
        <time>2021-03-20T09:57:32Z</time>
      </trkpt>
      <trkpt lat="49.09334" lon="0.76903">
        <ele>146.74</ele>
        <time>2021-03-20T09:57:33Z</time>
      </trkpt>
      <trkpt lat="49.08469" lon="0.76111">
        <ele>86.18</ele>
        <time>2021-03-20T10:16:12Z</time>
      </trkpt>
      <trkpt lat="49.08469" lon="0.76112">
        <ele>89.06</ele>
        <time>2021-03-20T10:16:24Z</time>
      </trkpt>
      <trkpt lat="49.08468" lon="0.76115">
        <ele>92.42</ele>
        <time>2021-03-20T10:16:40Z</time>
      </trkpt>
      <trkpt lat="49.08466" lon="0.76116">
        <ele>92.9</ele>
        <time>2021-03-20T10:17:17Z</time>
      </trkpt>
    </trkseg>
  </trk>
</gpx>